<?xml version="1.0" encoding="UTF-8" standalone="no" ?>
<gpx xmlns="http://www.topografix.com/GPX/1/1" xmlns:xsi="http://www.w3.org/2001/XMLSchema-instance" xsi:schemaLocation="http://www.topografix.com/GPX/1/1 http://www.topografix.com/GPX/1/1/gpx.xsd" version="1.1" creator="VisuGPX - https://www.visugpx.com">
  <metadata>
    <name>86 m St Hilaire de Clisson édité par cth85.com</name>
    <desc><![CDATA[Les Herbiers Les Peux
Gaubretière / Landes Genusson
L'Ouvrardière / St Symphorien
Treize Septiers La Bernardière
St Hilaire de Clisson
St Hilaire de Loulay / Montaigu
St Georges / Le Pont Léger
A/ d Bazoges Rivière Galochon
Paillers / Mesnard / La Fournerie 
Les Herbiers]]></desc>
  </metadata>
  <trk>
    <name><![CDATA[12904719-Mai  86km St Hilaire de Clisson]]></name>
    <extensions>
      <line xmlns="http://www.topografix.com/GPX/gpx_style/0/2">
        <color>0000FF</color>
        <width>4</width>
      </line>
    </extensions>
    <trkseg>
      <trkpt lat="46.86314" lon="-1.00602">
        <ele>119</ele>
        <time>2022-05-28T06:29:13.000Z</time>
      </trkpt>
      <trkpt lat="46.86327" lon="-1.00623">
        <ele>119</ele>
        <time>2022-05-28T06:29:16.314Z</time>
      </trkpt>
      <trkpt lat="46.86355" lon="-1.00599">
        <ele>120</ele>
        <time>2022-05-28T06:29:23.989Z</time>
      </trkpt>
      <trkpt lat="46.86386" lon="-1.0056">
        <ele>120</ele>
        <time>2022-05-28T06:29:30.986Z</time>
      </trkpt>
      <trkpt lat="46.86405" lon="-1.00559">
        <ele>120</ele>
        <time>2022-05-28T06:29:34.239Z</time>
      </trkpt>
      <trkpt lat="46.86414" lon="-1.00561">
        <ele>120</ele>
        <time>2022-05-28T06:29:35.796Z</time>
      </trkpt>
      <trkpt lat="46.86431" lon="-1.00557">
        <ele>120</ele>
        <time>2022-05-28T06:29:38.743Z</time>
      </trkpt>
      <trkpt lat="46.86479" lon="-1.00559">
        <ele>120</ele>
        <time>2022-05-28T06:29:46.959Z</time>
      </trkpt>
      <trkpt lat="46.86505" lon="-1.00567">
        <ele>119</ele>
        <time>2022-05-28T06:29:50.272Z</time>
      </trkpt>
      <trkpt lat="46.86529" lon="-1.00579">
        <ele>118</ele>
        <time>2022-05-28T06:29:53.392Z</time>
      </trkpt>
      <trkpt lat="46.8659" lon="-1.00623">
        <ele>116</ele>
        <time>2022-05-28T06:30:02.419Z</time>
      </trkpt>
      <trkpt lat="46.86716" lon="-1.00652">
        <ele>111</ele>
        <time>2022-05-28T06:30:18.140Z</time>
      </trkpt>
      <trkpt lat="46.86725" lon="-1.00659">
        <ele>111</ele>
        <time>2022-05-28T06:30:19.884Z</time>
      </trkpt>
      <trkpt lat="46.86767" lon="-1.00657">
        <ele>111</ele>
        <time>2022-05-28T06:30:27.075Z</time>
      </trkpt>
      <trkpt lat="46.86838" lon="-1.00626">
        <ele>112</ele>
        <time>2022-05-28T06:30:41.572Z</time>
      </trkpt>
      <trkpt lat="46.86873" lon="-1.00631">
        <ele>112</ele>
        <time>2022-05-28T06:30:47.589Z</time>
      </trkpt>
      <trkpt lat="46.86946" lon="-1.00653">
        <ele>109</ele>
        <time>2022-05-28T06:30:56.706Z</time>
      </trkpt>
      <trkpt lat="46.86983" lon="-1.00853">
        <ele>105</ele>
        <time>2022-05-28T06:31:15.678Z</time>
      </trkpt>
      <trkpt lat="46.86999" lon="-1.00917">
        <ele>103</ele>
        <time>2022-05-28T06:31:21.268Z</time>
      </trkpt>
      <trkpt lat="46.87003" lon="-1.00917">
        <ele>103</ele>
        <time>2022-05-28T06:31:21.952Z</time>
      </trkpt>
      <trkpt lat="46.87005" lon="-1.0092">
        <ele>103</ele>
        <time>2022-05-28T06:31:22.442Z</time>
      </trkpt>
      <trkpt lat="46.87006" lon="-1.00925">
        <ele>103</ele>
        <time>2022-05-28T06:31:23.052Z</time>
      </trkpt>
      <trkpt lat="46.87003" lon="-1.00933">
        <ele>103</ele>
        <time>2022-05-28T06:31:24.119Z</time>
      </trkpt>
      <trkpt lat="46.8705" lon="-1.01094">
        <ele>102</ele>
        <time>2022-05-28T06:31:43.074Z</time>
      </trkpt>
      <trkpt lat="46.87074" lon="-1.01164">
        <ele>104</ele>
        <time>2022-05-28T06:31:56.745Z</time>
      </trkpt>
      <trkpt lat="46.8711" lon="-1.01288">
        <ele>107</ele>
        <time>2022-05-28T06:32:18.972Z</time>
      </trkpt>
      <trkpt lat="46.87117" lon="-1.01321">
        <ele>108</ele>
        <time>2022-05-28T06:32:25.378Z</time>
      </trkpt>
      <trkpt lat="46.87223" lon="-1.01298">
        <ele>110</ele>
        <time>2022-05-28T06:32:47.518Z</time>
      </trkpt>
      <trkpt lat="46.87279" lon="-1.01273">
        <ele>110</ele>
        <time>2022-05-28T06:32:57.537Z</time>
      </trkpt>
      <trkpt lat="46.87292" lon="-1.01277">
        <ele>110</ele>
        <time>2022-05-28T06:32:59.810Z</time>
      </trkpt>
      <trkpt lat="46.87302" lon="-1.01287">
        <ele>111</ele>
        <time>2022-05-28T06:33:05.398Z</time>
      </trkpt>
      <trkpt lat="46.87308" lon="-1.01301">
        <ele>111</ele>
        <time>2022-05-28T06:33:07.330Z</time>
      </trkpt>
      <trkpt lat="46.87326" lon="-1.01388">
        <ele>113</ele>
        <time>2022-05-28T06:33:22.260Z</time>
      </trkpt>
      <trkpt lat="46.8733" lon="-1.01394">
        <ele>113</ele>
        <time>2022-05-28T06:33:23.240Z</time>
      </trkpt>
      <trkpt lat="46.87327" lon="-1.014">
        <ele>114</ele>
        <time>2022-05-28T06:33:26.966Z</time>
      </trkpt>
      <trkpt lat="46.87341" lon="-1.01459">
        <ele>115</ele>
        <time>2022-05-28T06:33:36.256Z</time>
      </trkpt>
      <trkpt lat="46.87342" lon="-1.01473">
        <ele>115</ele>
        <time>2022-05-28T06:33:37.902Z</time>
      </trkpt>
      <trkpt lat="46.87344" lon="-1.01472">
        <ele>115</ele>
        <time>2022-05-28T06:33:38.264Z</time>
      </trkpt>
      <trkpt lat="46.87349" lon="-1.01479">
        <ele>115</ele>
        <time>2022-05-28T06:33:39.448Z</time>
      </trkpt>
      <trkpt lat="46.87348" lon="-1.01483">
        <ele>115</ele>
        <time>2022-05-28T06:33:39.946Z</time>
      </trkpt>
      <trkpt lat="46.87344" lon="-1.01486">
        <ele>115</ele>
        <time>2022-05-28T06:33:40.715Z</time>
      </trkpt>
      <trkpt lat="46.87342" lon="-1.01485">
        <ele>115</ele>
        <time>2022-05-28T06:33:41.077Z</time>
      </trkpt>
      <trkpt lat="46.87336" lon="-1.01491">
        <ele>115</ele>
        <time>2022-05-28T06:33:42.321Z</time>
      </trkpt>
      <trkpt lat="46.87315" lon="-1.01501">
        <ele>115</ele>
        <time>2022-05-28T06:33:46.099Z</time>
      </trkpt>
      <trkpt lat="46.87236" lon="-1.01523">
        <ele>114</ele>
        <time>2022-05-28T06:33:58.383Z</time>
      </trkpt>
      <trkpt lat="46.87198" lon="-1.01536">
        <ele>113</ele>
        <time>2022-05-28T06:34:03.720Z</time>
      </trkpt>
      <trkpt lat="46.87185" lon="-1.01538">
        <ele>112</ele>
        <time>2022-05-28T06:34:05.062Z</time>
      </trkpt>
      <trkpt lat="46.87114" lon="-1.01537">
        <ele>109</ele>
        <time>2022-05-28T06:34:13.622Z</time>
      </trkpt>
      <trkpt lat="46.87108" lon="-1.01539">
        <ele>109</ele>
        <time>2022-05-28T06:34:14.675Z</time>
      </trkpt>
      <trkpt lat="46.871" lon="-1.01566">
        <ele>109</ele>
        <time>2022-05-28T06:34:18.117Z</time>
      </trkpt>
      <trkpt lat="46.87077" lon="-1.01698">
        <ele>110</ele>
        <time>2022-05-28T06:34:35.829Z</time>
      </trkpt>
      <trkpt lat="46.87081" lon="-1.01701">
        <ele>111</ele>
        <time>2022-05-28T06:34:39.125Z</time>
      </trkpt>
      <trkpt lat="46.87082" lon="-1.01706">
        <ele>111</ele>
        <time>2022-05-28T06:34:39.735Z</time>
      </trkpt>
      <trkpt lat="46.87392" lon="-1.01938">
        <ele>110</ele>
        <time>2022-05-28T06:35:37.727Z</time>
      </trkpt>
      <trkpt lat="46.87453" lon="-1.01981">
        <ele>110</ele>
        <time>2022-05-28T06:35:49.314Z</time>
      </trkpt>
      <trkpt lat="46.87503" lon="-1.02021">
        <ele>111</ele>
        <time>2022-05-28T06:36:00.948Z</time>
      </trkpt>
      <trkpt lat="46.87667" lon="-1.02143">
        <ele>116</ele>
        <time>2022-05-28T06:36:42.690Z</time>
      </trkpt>
      <trkpt lat="46.87685" lon="-1.02146">
        <ele>116</ele>
        <time>2022-05-28T06:36:45.790Z</time>
      </trkpt>
      <trkpt lat="46.87687" lon="-1.02141">
        <ele>116</ele>
        <time>2022-05-28T06:36:46.467Z</time>
      </trkpt>
      <trkpt lat="46.87696" lon="-1.02135">
        <ele>116</ele>
        <time>2022-05-28T06:36:48.160Z</time>
      </trkpt>
      <trkpt lat="46.87702" lon="-1.02138">
        <ele>116</ele>
        <time>2022-05-28T06:36:49.244Z</time>
      </trkpt>
      <trkpt lat="46.87706" lon="-1.02149">
        <ele>116</ele>
        <time>2022-05-28T06:36:50.702Z</time>
      </trkpt>
      <trkpt lat="46.87704" lon="-1.02163">
        <ele>116</ele>
        <time>2022-05-28T06:36:52.375Z</time>
      </trkpt>
      <trkpt lat="46.87729" lon="-1.0219">
        <ele>116</ele>
        <time>2022-05-28T06:36:57.692Z</time>
      </trkpt>
      <trkpt lat="46.8793" lon="-1.02345">
        <ele>118</ele>
        <time>2022-05-28T06:37:40.067Z</time>
      </trkpt>
      <trkpt lat="46.88174" lon="-1.02525">
        <ele>120</ele>
        <time>2022-05-28T06:38:30.279Z</time>
      </trkpt>
      <trkpt lat="46.88178" lon="-1.02519">
        <ele>120</ele>
        <time>2022-05-28T06:38:31.259Z</time>
      </trkpt>
      <trkpt lat="46.88185" lon="-1.02516">
        <ele>120</ele>
        <time>2022-05-28T06:38:32.507Z</time>
      </trkpt>
      <trkpt lat="46.88192" lon="-1.02519">
        <ele>120</ele>
        <time>2022-05-28T06:38:33.755Z</time>
      </trkpt>
      <trkpt lat="46.88196" lon="-1.02525">
        <ele>120</ele>
        <time>2022-05-28T06:38:34.736Z</time>
      </trkpt>
      <trkpt lat="46.88198" lon="-1.02536">
        <ele>120</ele>
        <time>2022-05-28T06:38:36.067Z</time>
      </trkpt>
      <trkpt lat="46.88196" lon="-1.02545">
        <ele>119</ele>
        <time>2022-05-28T06:38:36.731Z</time>
      </trkpt>
      <trkpt lat="46.88333" lon="-1.02646">
        <ele>121</ele>
        <time>2022-05-28T06:39:06.605Z</time>
      </trkpt>
      <trkpt lat="46.88686" lon="-1.02913">
        <ele>126</ele>
        <time>2022-05-28T06:40:23.625Z</time>
      </trkpt>
      <trkpt lat="46.88727" lon="-1.02948">
        <ele>125</ele>
        <time>2022-05-28T06:40:30.361Z</time>
      </trkpt>
      <trkpt lat="46.88767" lon="-1.02996">
        <ele>124</ele>
        <time>2022-05-28T06:40:37.810Z</time>
      </trkpt>
      <trkpt lat="46.88781" lon="-1.03017">
        <ele>124</ele>
        <time>2022-05-28T06:40:41.241Z</time>
      </trkpt>
      <trkpt lat="46.88804" lon="-1.03061">
        <ele>123</ele>
        <time>2022-05-28T06:40:46.385Z</time>
      </trkpt>
      <trkpt lat="46.88828" lon="-1.03126">
        <ele>122</ele>
        <time>2022-05-28T06:40:53.627Z</time>
      </trkpt>
      <trkpt lat="46.88855" lon="-1.03122">
        <ele>122</ele>
        <time>2022-05-28T06:40:58.270Z</time>
      </trkpt>
      <trkpt lat="46.88887" lon="-1.03107">
        <ele>123</ele>
        <time>2022-05-28T06:41:06.121Z</time>
      </trkpt>
      <trkpt lat="46.8891" lon="-1.03105">
        <ele>123</ele>
        <time>2022-05-28T06:41:10.063Z</time>
      </trkpt>
      <trkpt lat="46.88928" lon="-1.03107">
        <ele>123</ele>
        <time>2022-05-28T06:41:13.152Z</time>
      </trkpt>
      <trkpt lat="46.88949" lon="-1.03115">
        <ele>123</ele>
        <time>2022-05-28T06:41:16.865Z</time>
      </trkpt>
      <trkpt lat="46.89093" lon="-1.03217">
        <ele>122</ele>
        <time>2022-05-28T06:41:42.691Z</time>
      </trkpt>
      <trkpt lat="46.89263" lon="-1.03344">
        <ele>125</ele>
        <time>2022-05-28T06:42:20.913Z</time>
      </trkpt>
      <trkpt lat="46.89372" lon="-1.03429">
        <ele>125</ele>
        <time>2022-05-28T06:42:42.047Z</time>
      </trkpt>
      <trkpt lat="46.89431" lon="-1.03468">
        <ele>126</ele>
        <time>2022-05-28T06:42:54.974Z</time>
      </trkpt>
      <trkpt lat="46.89497" lon="-1.03522">
        <ele>127</ele>
        <time>2022-05-28T06:43:09.728Z</time>
      </trkpt>
      <trkpt lat="46.89633" lon="-1.03627">
        <ele>126</ele>
        <time>2022-05-28T06:43:34.493Z</time>
      </trkpt>
      <trkpt lat="46.90112" lon="-1.03986">
        <ele>126</ele>
        <time>2022-05-28T06:45:06.576Z</time>
      </trkpt>
      <trkpt lat="46.90135" lon="-1.0401">
        <ele>125</ele>
        <time>2022-05-28T06:45:10.157Z</time>
      </trkpt>
      <trkpt lat="46.90157" lon="-1.04047">
        <ele>124</ele>
        <time>2022-05-28T06:45:14.590Z</time>
      </trkpt>
      <trkpt lat="46.9017" lon="-1.04036">
        <ele>124</ele>
        <time>2022-05-28T06:45:17.159Z</time>
      </trkpt>
      <trkpt lat="46.90182" lon="-1.04033">
        <ele>124</ele>
        <time>2022-05-28T06:45:19.242Z</time>
      </trkpt>
      <trkpt lat="46.90242" lon="-1.0407">
        <ele>122</ele>
        <time>2022-05-28T06:45:27.796Z</time>
      </trkpt>
      <trkpt lat="46.90376" lon="-1.04141">
        <ele>125</ele>
        <time>2022-05-28T06:45:58.008Z</time>
      </trkpt>
      <trkpt lat="46.90501" lon="-1.04187">
        <ele>127</ele>
        <time>2022-05-28T06:46:23.764Z</time>
      </trkpt>
      <trkpt lat="46.9065" lon="-1.042">
        <ele>129</ele>
        <time>2022-05-28T06:46:52.939Z</time>
      </trkpt>
      <trkpt lat="46.9067" lon="-1.04199">
        <ele>129</ele>
        <time>2022-05-28T06:46:56.364Z</time>
      </trkpt>
      <trkpt lat="46.90751" lon="-1.04186">
        <ele>128</ele>
        <time>2022-05-28T06:47:08.828Z</time>
      </trkpt>
      <trkpt lat="46.90792" lon="-1.04171">
        <ele>127</ele>
        <time>2022-05-28T06:47:14.699Z</time>
      </trkpt>
      <trkpt lat="46.90812" lon="-1.04157">
        <ele>127</ele>
        <time>2022-05-28T06:47:18.493Z</time>
      </trkpt>
      <trkpt lat="46.90918" lon="-1.04067">
        <ele>127</ele>
        <time>2022-05-28T06:47:39.461Z</time>
      </trkpt>
      <trkpt lat="46.90939" lon="-1.04056">
        <ele>126</ele>
        <time>2022-05-28T06:47:42.101Z</time>
      </trkpt>
      <trkpt lat="46.90955" lon="-1.04052">
        <ele>125</ele>
        <time>2022-05-28T06:47:43.820Z</time>
      </trkpt>
      <trkpt lat="46.90984" lon="-1.0405">
        <ele>124</ele>
        <time>2022-05-28T06:47:47.527Z</time>
      </trkpt>
      <trkpt lat="46.91003" lon="-1.04053">
        <ele>123</ele>
        <time>2022-05-28T06:47:49.676Z</time>
      </trkpt>
      <trkpt lat="46.91043" lon="-1.04068">
        <ele>121</ele>
        <time>2022-05-28T06:47:54.443Z</time>
      </trkpt>
      <trkpt lat="46.91114" lon="-1.04099">
        <ele>119</ele>
        <time>2022-05-28T06:48:04.465Z</time>
      </trkpt>
      <trkpt lat="46.91183" lon="-1.04133">
        <ele>117</ele>
        <time>2022-05-28T06:48:14.276Z</time>
      </trkpt>
      <trkpt lat="46.91216" lon="-1.04157">
        <ele>118</ele>
        <time>2022-05-28T06:48:22.632Z</time>
      </trkpt>
      <trkpt lat="46.9126" lon="-1.042">
        <ele>120</ele>
        <time>2022-05-28T06:48:36.213Z</time>
      </trkpt>
      <trkpt lat="46.91311" lon="-1.04264">
        <ele>123</ele>
        <time>2022-05-28T06:48:54.962Z</time>
      </trkpt>
      <trkpt lat="46.91355" lon="-1.0435">
        <ele>126</ele>
        <time>2022-05-28T06:49:14.516Z</time>
      </trkpt>
      <trkpt lat="46.91389" lon="-1.04428">
        <ele>129</ele>
        <time>2022-05-28T06:49:32.786Z</time>
      </trkpt>
      <trkpt lat="46.91393" lon="-1.04443">
        <ele>129</ele>
        <time>2022-05-28T06:49:34.668Z</time>
      </trkpt>
      <trkpt lat="46.91418" lon="-1.04495">
        <ele>132</ele>
        <time>2022-05-28T06:49:51.345Z</time>
      </trkpt>
      <trkpt lat="46.9147" lon="-1.04575">
        <ele>133</ele>
        <time>2022-05-28T06:50:06.068Z</time>
      </trkpt>
      <trkpt lat="46.91492" lon="-1.04601">
        <ele>134</ele>
        <time>2022-05-28T06:50:13.119Z</time>
      </trkpt>
      <trkpt lat="46.91477" lon="-1.04659">
        <ele>133</ele>
        <time>2022-05-28T06:50:19.007Z</time>
      </trkpt>
      <trkpt lat="46.91608" lon="-1.04723">
        <ele>137</ele>
        <time>2022-05-28T06:50:50.980Z</time>
      </trkpt>
      <trkpt lat="46.91717" lon="-1.04788">
        <ele>141</ele>
        <time>2022-05-28T06:51:19.857Z</time>
      </trkpt>
      <trkpt lat="46.91879" lon="-1.04871">
        <ele>149</ele>
        <time>2022-05-28T06:52:08.941Z</time>
      </trkpt>
      <trkpt lat="46.92846" lon="-1.05342">
        <ele>177</ele>
        <time>2022-05-28T06:56:00.928Z</time>
      </trkpt>
      <trkpt lat="46.92973" lon="-1.05407">
        <ele>182</ele>
        <time>2022-05-28T06:56:35.201Z</time>
      </trkpt>
      <trkpt lat="46.93038" lon="-1.05436">
        <ele>182</ele>
        <time>2022-05-28T06:56:46.828Z</time>
      </trkpt>
      <trkpt lat="46.93148" lon="-1.05495">
        <ele>181</ele>
        <time>2022-05-28T06:57:05.352Z</time>
      </trkpt>
      <trkpt lat="46.93153" lon="-1.0548">
        <ele>181</ele>
        <time>2022-05-28T06:57:07.302Z</time>
      </trkpt>
      <trkpt lat="46.93162" lon="-1.05472">
        <ele>182</ele>
        <time>2022-05-28T06:57:13.021Z</time>
      </trkpt>
      <trkpt lat="46.93173" lon="-1.05472">
        <ele>182</ele>
        <time>2022-05-28T06:57:14.904Z</time>
      </trkpt>
      <trkpt lat="46.93181" lon="-1.05477">
        <ele>182</ele>
        <time>2022-05-28T06:57:16.392Z</time>
      </trkpt>
      <trkpt lat="46.93189" lon="-1.05495">
        <ele>182</ele>
        <time>2022-05-28T06:57:18.901Z</time>
      </trkpt>
      <trkpt lat="46.93185" lon="-1.05522">
        <ele>181</ele>
        <time>2022-05-28T06:57:21.014Z</time>
      </trkpt>
      <trkpt lat="46.93178" lon="-1.05529">
        <ele>180</ele>
        <time>2022-05-28T06:57:21.884Z</time>
      </trkpt>
      <trkpt lat="46.93167" lon="-1.05532">
        <ele>179</ele>
        <time>2022-05-28T06:57:23.032Z</time>
      </trkpt>
      <trkpt lat="46.93153" lon="-1.05525">
        <ele>179</ele>
        <time>2022-05-28T06:57:25.564Z</time>
      </trkpt>
      <trkpt lat="46.93126" lon="-1.05566">
        <ele>176</ele>
        <time>2022-05-28T06:57:29.557Z</time>
      </trkpt>
      <trkpt lat="46.93105" lon="-1.05606">
        <ele>173</ele>
        <time>2022-05-28T06:57:33.094Z</time>
      </trkpt>
      <trkpt lat="46.93086" lon="-1.05645">
        <ele>171</ele>
        <time>2022-05-28T06:57:36.570Z</time>
      </trkpt>
      <trkpt lat="46.9307" lon="-1.05692">
        <ele>169</ele>
        <time>2022-05-28T06:57:40.513Z</time>
      </trkpt>
      <trkpt lat="46.93052" lon="-1.05793">
        <ele>163</ele>
        <time>2022-05-28T06:57:47.831Z</time>
      </trkpt>
      <trkpt lat="46.93052" lon="-1.05838">
        <ele>160</ele>
        <time>2022-05-28T06:57:50.986Z</time>
      </trkpt>
      <trkpt lat="46.93056" lon="-1.05894">
        <ele>160</ele>
        <time>2022-05-28T06:57:57.565Z</time>
      </trkpt>
      <trkpt lat="46.93087" lon="-1.0605">
        <ele>161</ele>
        <time>2022-05-28T06:58:18.301Z</time>
      </trkpt>
      <trkpt lat="46.93285" lon="-1.0692">
        <ele>136</ele>
        <time>2022-05-28T06:59:35.077Z</time>
      </trkpt>
      <trkpt lat="46.93323" lon="-1.0708">
        <ele>132</ele>
        <time>2022-05-28T06:59:49.832Z</time>
      </trkpt>
      <trkpt lat="46.93347" lon="-1.07166">
        <ele>129</ele>
        <time>2022-05-28T06:59:57.214Z</time>
      </trkpt>
      <trkpt lat="46.93369" lon="-1.07228">
        <ele>129</ele>
        <time>2022-05-28T07:00:05.378Z</time>
      </trkpt>
      <trkpt lat="46.93402" lon="-1.07292">
        <ele>130</ele>
        <time>2022-05-28T07:00:16.644Z</time>
      </trkpt>
      <trkpt lat="46.93442" lon="-1.07351">
        <ele>130</ele>
        <time>2022-05-28T07:00:26.358Z</time>
      </trkpt>
      <trkpt lat="46.93498" lon="-1.0742">
        <ele>131</ele>
        <time>2022-05-28T07:00:40.702Z</time>
      </trkpt>
      <trkpt lat="46.93641" lon="-1.07572">
        <ele>127</ele>
        <time>2022-05-28T07:01:05.457Z</time>
      </trkpt>
      <trkpt lat="46.93685" lon="-1.07626">
        <ele>125</ele>
        <time>2022-05-28T07:01:12.765Z</time>
      </trkpt>
      <trkpt lat="46.93706" lon="-1.07664">
        <ele>125</ele>
        <time>2022-05-28T07:01:18.477Z</time>
      </trkpt>
      <trkpt lat="46.93716" lon="-1.07654">
        <ele>125</ele>
        <time>2022-05-28T07:01:20.549Z</time>
      </trkpt>
      <trkpt lat="46.93723" lon="-1.07652">
        <ele>125</ele>
        <time>2022-05-28T07:01:21.769Z</time>
      </trkpt>
      <trkpt lat="46.9374" lon="-1.07661">
        <ele>125</ele>
        <time>2022-05-28T07:01:24.862Z</time>
      </trkpt>
      <trkpt lat="46.93748" lon="-1.07688">
        <ele>124</ele>
        <time>2022-05-28T07:01:27.161Z</time>
      </trkpt>
      <trkpt lat="46.93744" lon="-1.07706">
        <ele>124</ele>
        <time>2022-05-28T07:01:29.373Z</time>
      </trkpt>
      <trkpt lat="46.9398" lon="-1.07928">
        <ele>124</ele>
        <time>2022-05-28T07:02:17.366Z</time>
      </trkpt>
      <trkpt lat="46.94018" lon="-1.07959">
        <ele>125</ele>
        <time>2022-05-28T07:02:26.785Z</time>
      </trkpt>
      <trkpt lat="46.94049" lon="-1.07975">
        <ele>125</ele>
        <time>2022-05-28T07:02:32.409Z</time>
      </trkpt>
      <trkpt lat="46.94081" lon="-1.07987">
        <ele>126</ele>
        <time>2022-05-28T07:02:40.172Z</time>
      </trkpt>
      <trkpt lat="46.94119" lon="-1.07993">
        <ele>127</ele>
        <time>2022-05-28T07:02:48.745Z</time>
      </trkpt>
      <trkpt lat="46.94167" lon="-1.07998">
        <ele>128</ele>
        <time>2022-05-28T07:02:58.917Z</time>
      </trkpt>
      <trkpt lat="46.94513" lon="-1.08001">
        <ele>130</ele>
        <time>2022-05-28T07:04:01.532Z</time>
      </trkpt>
      <trkpt lat="46.94985" lon="-1.08">
        <ele>120</ele>
        <time>2022-05-28T07:05:08.453Z</time>
      </trkpt>
      <trkpt lat="46.95017" lon="-1.07998">
        <ele>120</ele>
        <time>2022-05-28T07:05:13.933Z</time>
      </trkpt>
      <trkpt lat="46.95085" lon="-1.07977">
        <ele>121</ele>
        <time>2022-05-28T07:05:27.658Z</time>
      </trkpt>
      <trkpt lat="46.95143" lon="-1.07955">
        <ele>120</ele>
        <time>2022-05-28T07:05:36.479Z</time>
      </trkpt>
      <trkpt lat="46.95141" lon="-1.07943">
        <ele>120</ele>
        <time>2022-05-28T07:05:37.921Z</time>
      </trkpt>
      <trkpt lat="46.95143" lon="-1.07931">
        <ele>120</ele>
        <time>2022-05-28T07:05:39.364Z</time>
      </trkpt>
      <trkpt lat="46.95149" lon="-1.07924">
        <ele>120</ele>
        <time>2022-05-28T07:05:40.677Z</time>
      </trkpt>
      <trkpt lat="46.95158" lon="-1.0792">
        <ele>120</ele>
        <time>2022-05-28T07:05:42.286Z</time>
      </trkpt>
      <trkpt lat="46.95172" lon="-1.07931">
        <ele>120</ele>
        <time>2022-05-28T07:05:45.004Z</time>
      </trkpt>
      <trkpt lat="46.95172" lon="-1.07955">
        <ele>120</ele>
        <time>2022-05-28T07:05:47.807Z</time>
      </trkpt>
      <trkpt lat="46.95165" lon="-1.07963">
        <ele>120</ele>
        <time>2022-05-28T07:05:49.327Z</time>
      </trkpt>
      <trkpt lat="46.95356" lon="-1.08514">
        <ele>123</ele>
        <time>2022-05-28T07:07:06.678Z</time>
      </trkpt>
      <trkpt lat="46.95476" lon="-1.08852">
        <ele>122</ele>
        <time>2022-05-28T07:07:49.598Z</time>
      </trkpt>
      <trkpt lat="46.95517" lon="-1.08984">
        <ele>119</ele>
        <time>2022-05-28T07:08:02.644Z</time>
      </trkpt>
      <trkpt lat="46.95544" lon="-1.09091">
        <ele>117</ele>
        <time>2022-05-28T07:08:13.287Z</time>
      </trkpt>
      <trkpt lat="46.95967" lon="-1.10954">
        <ele>110</ele>
        <time>2022-05-28T07:11:51.659Z</time>
      </trkpt>
      <trkpt lat="46.96008" lon="-1.11148">
        <ele>112</ele>
        <time>2022-05-28T07:12:19.044Z</time>
      </trkpt>
      <trkpt lat="46.96013" lon="-1.11145">
        <ele>112</ele>
        <time>2022-05-28T07:12:19.968Z</time>
      </trkpt>
      <trkpt lat="46.96022" lon="-1.11152">
        <ele>111</ele>
        <time>2022-05-28T07:12:21.014Z</time>
      </trkpt>
      <trkpt lat="46.96022" lon="-1.11168">
        <ele>111</ele>
        <time>2022-05-28T07:12:22.883Z</time>
      </trkpt>
      <trkpt lat="46.96016" lon="-1.11174">
        <ele>111</ele>
        <time>2022-05-28T07:12:24.126Z</time>
      </trkpt>
      <trkpt lat="46.96046" lon="-1.1129">
        <ele>110</ele>
        <time>2022-05-28T07:12:37.129Z</time>
      </trkpt>
      <trkpt lat="46.96072" lon="-1.11369">
        <ele>111</ele>
        <time>2022-05-28T07:12:49.241Z</time>
      </trkpt>
      <trkpt lat="46.961" lon="-1.11437">
        <ele>111</ele>
        <time>2022-05-28T07:12:58.515Z</time>
      </trkpt>
      <trkpt lat="46.9613" lon="-1.11501">
        <ele>109</ele>
        <time>2022-05-28T07:13:05.117Z</time>
      </trkpt>
      <trkpt lat="46.96313" lon="-1.11812">
        <ele>108</ele>
        <time>2022-05-28T07:13:51.488Z</time>
      </trkpt>
      <trkpt lat="46.96336" lon="-1.11894">
        <ele>109</ele>
        <time>2022-05-28T07:14:03.708Z</time>
      </trkpt>
      <trkpt lat="46.96354" lon="-1.11943">
        <ele>109</ele>
        <time>2022-05-28T07:14:10.206Z</time>
      </trkpt>
      <trkpt lat="46.96368" lon="-1.11946">
        <ele>109</ele>
        <time>2022-05-28T07:14:12.627Z</time>
      </trkpt>
      <trkpt lat="46.96391" lon="-1.11942">
        <ele>110</ele>
        <time>2022-05-28T07:14:18.974Z</time>
      </trkpt>
      <trkpt lat="46.96435" lon="-1.11922">
        <ele>111</ele>
        <time>2022-05-28T07:14:28.811Z</time>
      </trkpt>
      <trkpt lat="46.96485" lon="-1.11887">
        <ele>110</ele>
        <time>2022-05-28T07:14:36.876Z</time>
      </trkpt>
      <trkpt lat="46.96497" lon="-1.11884">
        <ele>110</ele>
        <time>2022-05-28T07:14:38.959Z</time>
      </trkpt>
      <trkpt lat="46.96517" lon="-1.11913">
        <ele>110</ele>
        <time>2022-05-28T07:14:43.773Z</time>
      </trkpt>
      <trkpt lat="46.96704" lon="-1.12146">
        <ele>103</ele>
        <time>2022-05-28T07:15:16.579Z</time>
      </trkpt>
      <trkpt lat="46.96732" lon="-1.12185">
        <ele>101</ele>
        <time>2022-05-28T07:15:20.939Z</time>
      </trkpt>
      <trkpt lat="46.96769" lon="-1.12246">
        <ele>100</ele>
        <time>2022-05-28T07:15:29.051Z</time>
      </trkpt>
      <trkpt lat="46.96772" lon="-1.12241">
        <ele>100</ele>
        <time>2022-05-28T07:15:29.829Z</time>
      </trkpt>
      <trkpt lat="46.96777" lon="-1.12239">
        <ele>100</ele>
        <time>2022-05-28T07:15:30.716Z</time>
      </trkpt>
      <trkpt lat="46.96782" lon="-1.12241">
        <ele>100</ele>
        <time>2022-05-28T07:15:31.602Z</time>
      </trkpt>
      <trkpt lat="46.96785" lon="-1.12246">
        <ele>100</ele>
        <time>2022-05-28T07:15:32.380Z</time>
      </trkpt>
      <trkpt lat="46.96785" lon="-1.1226">
        <ele>100</ele>
        <time>2022-05-28T07:15:34.015Z</time>
      </trkpt>
      <trkpt lat="46.96782" lon="-1.12266">
        <ele>100</ele>
        <time>2022-05-28T07:15:34.883Z</time>
      </trkpt>
      <trkpt lat="46.96772" lon="-1.12266">
        <ele>100</ele>
        <time>2022-05-28T07:15:36.594Z</time>
      </trkpt>
      <trkpt lat="46.96771" lon="-1.12282">
        <ele>100</ele>
        <time>2022-05-28T07:15:38.470Z</time>
      </trkpt>
      <trkpt lat="46.96777" lon="-1.12322">
        <ele>99</ele>
        <time>2022-05-28T07:15:42.003Z</time>
      </trkpt>
      <trkpt lat="46.96777" lon="-1.12338">
        <ele>99</ele>
        <time>2022-05-28T07:15:43.871Z</time>
      </trkpt>
      <trkpt lat="46.96766" lon="-1.12452">
        <ele>100</ele>
        <time>2022-05-28T07:15:59.122Z</time>
      </trkpt>
      <trkpt lat="46.9683" lon="-1.12843">
        <ele>98</ele>
        <time>2022-05-28T07:16:43.000Z</time>
      </trkpt>
      <trkpt lat="46.96858" lon="-1.12974">
        <ele>97</ele>
        <time>2022-05-28T07:16:57.532Z</time>
      </trkpt>
      <trkpt lat="46.96895" lon="-1.13194">
        <ele>97</ele>
        <time>2022-05-28T07:17:23.989Z</time>
      </trkpt>
      <trkpt lat="46.96903" lon="-1.13346">
        <ele>97</ele>
        <time>2022-05-28T07:17:41.790Z</time>
      </trkpt>
      <trkpt lat="46.96937" lon="-1.13422">
        <ele>97</ele>
        <time>2022-05-28T07:17:52.401Z</time>
      </trkpt>
      <trkpt lat="46.96991" lon="-1.13519">
        <ele>97</ele>
        <time>2022-05-28T07:18:07.018Z</time>
      </trkpt>
      <trkpt lat="46.97043" lon="-1.13636">
        <ele>97</ele>
        <time>2022-05-28T07:18:23.321Z</time>
      </trkpt>
      <trkpt lat="46.97125" lon="-1.13862">
        <ele>96</ele>
        <time>2022-05-28T07:18:51.652Z</time>
      </trkpt>
      <trkpt lat="46.97137" lon="-1.1391">
        <ele>97</ele>
        <time>2022-05-28T07:18:59.701Z</time>
      </trkpt>
      <trkpt lat="46.97167" lon="-1.14056">
        <ele>96</ele>
        <time>2022-05-28T07:19:15.994Z</time>
      </trkpt>
      <trkpt lat="46.9717" lon="-1.14134">
        <ele>96</ele>
        <time>2022-05-28T07:19:25.116Z</time>
      </trkpt>
      <trkpt lat="46.97176" lon="-1.14832">
        <ele>93</ele>
        <time>2022-05-28T07:20:41.975Z</time>
      </trkpt>
      <trkpt lat="46.97178" lon="-1.14872">
        <ele>93</ele>
        <time>2022-05-28T07:20:46.658Z</time>
      </trkpt>
      <trkpt lat="46.97191" lon="-1.14917">
        <ele>93</ele>
        <time>2022-05-28T07:20:52.363Z</time>
      </trkpt>
      <trkpt lat="46.97204" lon="-1.14936">
        <ele>93</ele>
        <time>2022-05-28T07:20:55.505Z</time>
      </trkpt>
      <trkpt lat="46.97218" lon="-1.1495">
        <ele>93</ele>
        <time>2022-05-28T07:20:58.405Z</time>
      </trkpt>
      <trkpt lat="46.97257" lon="-1.14969">
        <ele>93</ele>
        <time>2022-05-28T07:21:05.437Z</time>
      </trkpt>
      <trkpt lat="46.97562" lon="-1.15086">
        <ele>90</ele>
        <time>2022-05-28T07:21:54.853Z</time>
      </trkpt>
      <trkpt lat="46.9761" lon="-1.15108">
        <ele>90</ele>
        <time>2022-05-28T07:22:03.459Z</time>
      </trkpt>
      <trkpt lat="46.9764" lon="-1.15126">
        <ele>90</ele>
        <time>2022-05-28T07:22:09.005Z</time>
      </trkpt>
      <trkpt lat="46.97681" lon="-1.15158">
        <ele>90</ele>
        <time>2022-05-28T07:22:16.954Z</time>
      </trkpt>
      <trkpt lat="46.97754" lon="-1.15243">
        <ele>90</ele>
        <time>2022-05-28T07:22:32.907Z</time>
      </trkpt>
      <trkpt lat="46.9778" lon="-1.15281">
        <ele>90</ele>
        <time>2022-05-28T07:22:39.189Z</time>
      </trkpt>
      <trkpt lat="46.97789" lon="-1.15301">
        <ele>90</ele>
        <time>2022-05-28T07:22:41.986Z</time>
      </trkpt>
      <trkpt lat="46.97804" lon="-1.15355">
        <ele>90</ele>
        <time>2022-05-28T07:22:48.793Z</time>
      </trkpt>
      <trkpt lat="46.97842" lon="-1.15559">
        <ele>91</ele>
        <time>2022-05-28T07:23:15.202Z</time>
      </trkpt>
      <trkpt lat="46.97907" lon="-1.15831">
        <ele>90</ele>
        <time>2022-05-28T07:23:47.284Z</time>
      </trkpt>
      <trkpt lat="46.97917" lon="-1.15881">
        <ele>89</ele>
        <time>2022-05-28T07:23:52.050Z</time>
      </trkpt>
      <trkpt lat="46.97915" lon="-1.15927">
        <ele>89</ele>
        <time>2022-05-28T07:23:57.431Z</time>
      </trkpt>
      <trkpt lat="46.97908" lon="-1.15972">
        <ele>89</ele>
        <time>2022-05-28T07:24:02.819Z</time>
      </trkpt>
      <trkpt lat="46.97879" lon="-1.16138">
        <ele>90</ele>
        <time>2022-05-28T07:24:24.568Z</time>
      </trkpt>
      <trkpt lat="46.97855" lon="-1.16249">
        <ele>89</ele>
        <time>2022-05-28T07:24:36.686Z</time>
      </trkpt>
      <trkpt lat="46.97848" lon="-1.16311">
        <ele>89</ele>
        <time>2022-05-28T07:24:44.023Z</time>
      </trkpt>
      <trkpt lat="46.97848" lon="-1.16329">
        <ele>88</ele>
        <time>2022-05-28T07:24:45.284Z</time>
      </trkpt>
      <trkpt lat="46.97854" lon="-1.16348">
        <ele>89</ele>
        <time>2022-05-28T07:24:50.839Z</time>
      </trkpt>
      <trkpt lat="46.97933" lon="-1.16493">
        <ele>90</ele>
        <time>2022-05-28T07:25:14.236Z</time>
      </trkpt>
      <trkpt lat="46.97973" lon="-1.16546">
        <ele>88</ele>
        <time>2022-05-28T07:25:20.986Z</time>
      </trkpt>
      <trkpt lat="46.98094" lon="-1.16684">
        <ele>88</ele>
        <time>2022-05-28T07:25:47.220Z</time>
      </trkpt>
      <trkpt lat="46.98109" lon="-1.16704">
        <ele>88</ele>
        <time>2022-05-28T07:25:50.689Z</time>
      </trkpt>
      <trkpt lat="46.98236" lon="-1.16901">
        <ele>85</ele>
        <time>2022-05-28T07:26:18.023Z</time>
      </trkpt>
      <trkpt lat="46.98247" lon="-1.16912">
        <ele>85</ele>
        <time>2022-05-28T07:26:20.301Z</time>
      </trkpt>
      <trkpt lat="46.9824" lon="-1.16938">
        <ele>85</ele>
        <time>2022-05-28T07:26:23.564Z</time>
      </trkpt>
      <trkpt lat="46.98197" lon="-1.17055">
        <ele>87</ele>
        <time>2022-05-28T07:26:42.997Z</time>
      </trkpt>
      <trkpt lat="46.98135" lon="-1.17166">
        <ele>87</ele>
        <time>2022-05-28T07:26:59.744Z</time>
      </trkpt>
      <trkpt lat="46.98053" lon="-1.17337">
        <ele>84</ele>
        <time>2022-05-28T07:27:19.987Z</time>
      </trkpt>
      <trkpt lat="46.9802" lon="-1.17397">
        <ele>82</ele>
        <time>2022-05-28T07:27:26.523Z</time>
      </trkpt>
      <trkpt lat="46.97995" lon="-1.17431">
        <ele>81</ele>
        <time>2022-05-28T07:27:31.052Z</time>
      </trkpt>
      <trkpt lat="46.97966" lon="-1.17453">
        <ele>81</ele>
        <time>2022-05-28T07:27:36.639Z</time>
      </trkpt>
      <trkpt lat="46.97948" lon="-1.17475">
        <ele>82</ele>
        <time>2022-05-28T07:27:43.022Z</time>
      </trkpt>
      <trkpt lat="46.97871" lon="-1.1762">
        <ele>82</ele>
        <time>2022-05-28T07:28:04.472Z</time>
      </trkpt>
      <trkpt lat="46.97861" lon="-1.17633">
        <ele>82</ele>
        <time>2022-05-28T07:28:06.759Z</time>
      </trkpt>
      <trkpt lat="46.97748" lon="-1.17734">
        <ele>85</ele>
        <time>2022-05-28T07:28:35.318Z</time>
      </trkpt>
      <trkpt lat="46.977" lon="-1.17784">
        <ele>86</ele>
        <time>2022-05-28T07:28:47.268Z</time>
      </trkpt>
      <trkpt lat="46.97662" lon="-1.17831">
        <ele>86</ele>
        <time>2022-05-28T07:28:55.776Z</time>
      </trkpt>
      <trkpt lat="46.97645" lon="-1.17875">
        <ele>85</ele>
        <time>2022-05-28T07:29:00.370Z</time>
      </trkpt>
      <trkpt lat="46.97623" lon="-1.18064">
        <ele>85</ele>
        <time>2022-05-28T07:29:22.754Z</time>
      </trkpt>
      <trkpt lat="46.97617" lon="-1.18213">
        <ele>84</ele>
        <time>2022-05-28T07:29:38.673Z</time>
      </trkpt>
      <trkpt lat="46.97619" lon="-1.18253">
        <ele>84</ele>
        <time>2022-05-28T07:29:43.356Z</time>
      </trkpt>
      <trkpt lat="46.97631" lon="-1.18346">
        <ele>85</ele>
        <time>2022-05-28T07:29:56.256Z</time>
      </trkpt>
      <trkpt lat="46.97631" lon="-1.18367">
        <ele>85</ele>
        <time>2022-05-28T07:29:58.708Z</time>
      </trkpt>
      <trkpt lat="46.9762" lon="-1.18466">
        <ele>84</ele>
        <time>2022-05-28T07:30:08.965Z</time>
      </trkpt>
      <trkpt lat="46.9763" lon="-1.18785">
        <ele>82</ele>
        <time>2022-05-28T07:30:43.219Z</time>
      </trkpt>
      <trkpt lat="46.97624" lon="-1.19061">
        <ele>82</ele>
        <time>2022-05-28T07:31:15.458Z</time>
      </trkpt>
      <trkpt lat="46.97633" lon="-1.19268">
        <ele>80</ele>
        <time>2022-05-28T07:31:36.757Z</time>
      </trkpt>
      <trkpt lat="46.97665" lon="-1.19482">
        <ele>78</ele>
        <time>2022-05-28T07:31:59.401Z</time>
      </trkpt>
      <trkpt lat="46.97679" lon="-1.19643">
        <ele>78</ele>
        <time>2022-05-28T07:32:18.349Z</time>
      </trkpt>
      <trkpt lat="46.97692" lon="-1.1975">
        <ele>77</ele>
        <time>2022-05-28T07:32:29.573Z</time>
      </trkpt>
      <trkpt lat="46.97797" lon="-1.20178">
        <ele>76</ele>
        <time>2022-05-28T07:33:21.086Z</time>
      </trkpt>
      <trkpt lat="46.97805" lon="-1.20225">
        <ele>76</ele>
        <time>2022-05-28T07:33:26.741Z</time>
      </trkpt>
      <trkpt lat="46.97814" lon="-1.20367">
        <ele>76</ele>
        <time>2022-05-28T07:33:43.390Z</time>
      </trkpt>
      <trkpt lat="46.97828" lon="-1.2083">
        <ele>76</ele>
        <time>2022-05-28T07:34:37.495Z</time>
      </trkpt>
      <trkpt lat="46.97832" lon="-1.20873">
        <ele>76</ele>
        <time>2022-05-28T07:34:42.561Z</time>
      </trkpt>
      <trkpt lat="46.97838" lon="-1.20905">
        <ele>76</ele>
        <time>2022-05-28T07:34:46.436Z</time>
      </trkpt>
      <trkpt lat="46.97881" lon="-1.21062">
        <ele>76</ele>
        <time>2022-05-28T07:35:06.186Z</time>
      </trkpt>
      <trkpt lat="46.97912" lon="-1.21207">
        <ele>75</ele>
        <time>2022-05-28T07:35:22.416Z</time>
      </trkpt>
      <trkpt lat="46.97971" lon="-1.21419">
        <ele>73</ele>
        <time>2022-05-28T07:35:46.200Z</time>
      </trkpt>
      <trkpt lat="46.97988" lon="-1.21459">
        <ele>73</ele>
        <time>2022-05-28T07:35:51.701Z</time>
      </trkpt>
      <trkpt lat="46.98021" lon="-1.21521">
        <ele>74</ele>
        <time>2022-05-28T07:36:02.783Z</time>
      </trkpt>
      <trkpt lat="46.9804" lon="-1.21575">
        <ele>74</ele>
        <time>2022-05-28T07:36:09.876Z</time>
      </trkpt>
      <trkpt lat="46.98068" lon="-1.21714">
        <ele>73</ele>
        <time>2022-05-28T07:36:25.292Z</time>
      </trkpt>
      <trkpt lat="46.981" lon="-1.2185">
        <ele>70</ele>
        <time>2022-05-28T07:36:38.201Z</time>
      </trkpt>
      <trkpt lat="46.98111" lon="-1.21906">
        <ele>68</ele>
        <time>2022-05-28T07:36:42.733Z</time>
      </trkpt>
      <trkpt lat="46.98121" lon="-1.22056">
        <ele>67</ele>
        <time>2022-05-28T07:36:58.819Z</time>
      </trkpt>
      <trkpt lat="46.98134" lon="-1.22158">
        <ele>67</ele>
        <time>2022-05-28T07:37:10.932Z</time>
      </trkpt>
      <trkpt lat="46.98147" lon="-1.2222">
        <ele>67</ele>
        <time>2022-05-28T07:37:18.504Z</time>
      </trkpt>
      <trkpt lat="46.98162" lon="-1.22277">
        <ele>66</ele>
        <time>2022-05-28T07:37:24.279Z</time>
      </trkpt>
      <trkpt lat="46.98176" lon="-1.22365">
        <ele>67</ele>
        <time>2022-05-28T07:37:36.690Z</time>
      </trkpt>
      <trkpt lat="46.98195" lon="-1.22454">
        <ele>67</ele>
        <time>2022-05-28T07:37:47.576Z</time>
      </trkpt>
      <trkpt lat="46.98207" lon="-1.22494">
        <ele>67</ele>
        <time>2022-05-28T07:37:52.677Z</time>
      </trkpt>
      <trkpt lat="46.98252" lon="-1.2261">
        <ele>66</ele>
        <time>2022-05-28T07:38:06.761Z</time>
      </trkpt>
      <trkpt lat="46.98317" lon="-1.22765">
        <ele>64</ele>
        <time>2022-05-28T07:38:25.126Z</time>
      </trkpt>
      <trkpt lat="46.98342" lon="-1.22846">
        <ele>64</ele>
        <time>2022-05-28T07:38:35.504Z</time>
      </trkpt>
      <trkpt lat="46.98364" lon="-1.229">
        <ele>64</ele>
        <time>2022-05-28T07:38:42.846Z</time>
      </trkpt>
      <trkpt lat="46.98495" lon="-1.22865">
        <ele>66</ele>
        <time>2022-05-28T07:39:09.317Z</time>
      </trkpt>
      <trkpt lat="46.98492" lon="-1.22979">
        <ele>66</ele>
        <time>2022-05-28T07:39:22.634Z</time>
      </trkpt>
      <trkpt lat="46.98488" lon="-1.23035">
        <ele>66</ele>
        <time>2022-05-28T07:39:29.206Z</time>
      </trkpt>
      <trkpt lat="46.9852" lon="-1.23035">
        <ele>67</ele>
        <time>2022-05-28T07:39:36.811Z</time>
      </trkpt>
      <trkpt lat="46.9853" lon="-1.23039">
        <ele>67</ele>
        <time>2022-05-28T07:39:38.585Z</time>
      </trkpt>
      <trkpt lat="46.98545" lon="-1.23102">
        <ele>68</ele>
        <time>2022-05-28T07:39:48.332Z</time>
      </trkpt>
      <trkpt lat="46.98608" lon="-1.23104">
        <ele>68</ele>
        <time>2022-05-28T07:39:59.115Z</time>
      </trkpt>
      <trkpt lat="46.98607" lon="-1.2321">
        <ele>68</ele>
        <time>2022-05-28T07:40:11.489Z</time>
      </trkpt>
      <trkpt lat="46.98624" lon="-1.23212">
        <ele>69</ele>
        <time>2022-05-28T07:40:17.183Z</time>
      </trkpt>
      <trkpt lat="46.98662" lon="-1.23223">
        <ele>70</ele>
        <time>2022-05-28T07:40:25.837Z</time>
      </trkpt>
      <trkpt lat="46.98683" lon="-1.23235">
        <ele>70</ele>
        <time>2022-05-28T07:40:29.694Z</time>
      </trkpt>
      <trkpt lat="46.98734" lon="-1.23275">
        <ele>70</ele>
        <time>2022-05-28T07:40:39.591Z</time>
      </trkpt>
      <trkpt lat="46.98765" lon="-1.23294">
        <ele>69</ele>
        <time>2022-05-28T07:40:44.038Z</time>
      </trkpt>
      <trkpt lat="46.98931" lon="-1.23358">
        <ele>68</ele>
        <time>2022-05-28T07:41:11.854Z</time>
      </trkpt>
      <trkpt lat="46.98933" lon="-1.23351">
        <ele>68</ele>
        <time>2022-05-28T07:41:12.740Z</time>
      </trkpt>
      <trkpt lat="46.98938" lon="-1.23348">
        <ele>68</ele>
        <time>2022-05-28T07:41:13.664Z</time>
      </trkpt>
      <trkpt lat="46.98943" lon="-1.23351">
        <ele>68</ele>
        <time>2022-05-28T07:41:14.589Z</time>
      </trkpt>
      <trkpt lat="46.98945" lon="-1.2336">
        <ele>68</ele>
        <time>2022-05-28T07:41:15.694Z</time>
      </trkpt>
      <trkpt lat="46.99063" lon="-1.23366">
        <ele>69</ele>
        <time>2022-05-28T07:41:37.640Z</time>
      </trkpt>
      <trkpt lat="46.99111" lon="-1.23372">
        <ele>69</ele>
        <time>2022-05-28T07:41:45.883Z</time>
      </trkpt>
      <trkpt lat="46.99153" lon="-1.23383">
        <ele>69</ele>
        <time>2022-05-28T07:41:53.184Z</time>
      </trkpt>
      <trkpt lat="46.99185" lon="-1.23395">
        <ele>69</ele>
        <time>2022-05-28T07:41:58.835Z</time>
      </trkpt>
      <trkpt lat="46.99277" lon="-1.23442">
        <ele>70</ele>
        <time>2022-05-28T07:42:17.276Z</time>
      </trkpt>
      <trkpt lat="46.99309" lon="-1.23454">
        <ele>70</ele>
        <time>2022-05-28T07:42:22.928Z</time>
      </trkpt>
      <trkpt lat="46.99329" lon="-1.23454">
        <ele>70</ele>
        <time>2022-05-28T07:42:26.350Z</time>
      </trkpt>
      <trkpt lat="46.99395" lon="-1.23429">
        <ele>69</ele>
        <time>2022-05-28T07:42:36.561Z</time>
      </trkpt>
      <trkpt lat="46.99424" lon="-1.23425">
        <ele>69</ele>
        <time>2022-05-28T07:42:41.545Z</time>
      </trkpt>
      <trkpt lat="46.99496" lon="-1.23433">
        <ele>67</ele>
        <time>2022-05-28T07:42:51.258Z</time>
      </trkpt>
      <trkpt lat="46.99552" lon="-1.23445">
        <ele>67</ele>
        <time>2022-05-28T07:43:00.942Z</time>
      </trkpt>
      <trkpt lat="46.99594" lon="-1.2346">
        <ele>67</ele>
        <time>2022-05-28T07:43:08.339Z</time>
      </trkpt>
      <trkpt lat="46.99637" lon="-1.2349">
        <ele>67</ele>
        <time>2022-05-28T07:43:16.487Z</time>
      </trkpt>
      <trkpt lat="46.99758" lon="-1.23611">
        <ele>67</ele>
        <time>2022-05-28T07:43:41.548Z</time>
      </trkpt>
      <trkpt lat="46.99843" lon="-1.23679">
        <ele>68</ele>
        <time>2022-05-28T07:43:59.887Z</time>
      </trkpt>
      <trkpt lat="46.99888" lon="-1.2371">
        <ele>69</ele>
        <time>2022-05-28T07:44:10.321Z</time>
      </trkpt>
      <trkpt lat="46.99951" lon="-1.23746">
        <ele>69</ele>
        <time>2022-05-28T07:44:21.891Z</time>
      </trkpt>
      <trkpt lat="47.00099" lon="-1.23811">
        <ele>70</ele>
        <time>2022-05-28T07:44:50.041Z</time>
      </trkpt>
      <trkpt lat="47.00199" lon="-1.23873">
        <ele>70</ele>
        <time>2022-05-28T07:45:08.619Z</time>
      </trkpt>
      <trkpt lat="47.00244" lon="-1.23897">
        <ele>70</ele>
        <time>2022-05-28T07:45:16.812Z</time>
      </trkpt>
      <trkpt lat="47.00283" lon="-1.2391">
        <ele>70</ele>
        <time>2022-05-28T07:45:23.656Z</time>
      </trkpt>
      <trkpt lat="47.00326" lon="-1.23916">
        <ele>71</ele>
        <time>2022-05-28T07:45:33.026Z</time>
      </trkpt>
      <trkpt lat="47.00383" lon="-1.2392">
        <ele>72</ele>
        <time>2022-05-28T07:45:44.673Z</time>
      </trkpt>
      <trkpt lat="47.00422" lon="-1.23928">
        <ele>72</ele>
        <time>2022-05-28T07:45:51.412Z</time>
      </trkpt>
      <trkpt lat="47.00465" lon="-1.23946">
        <ele>73</ele>
        <time>2022-05-28T07:46:01.028Z</time>
      </trkpt>
      <trkpt lat="47.00718" lon="-1.24092">
        <ele>75</ele>
        <time>2022-05-28T07:46:51.005Z</time>
      </trkpt>
      <trkpt lat="47.00755" lon="-1.24117">
        <ele>75</ele>
        <time>2022-05-28T07:46:57.976Z</time>
      </trkpt>
      <trkpt lat="47.00871" lon="-1.24209">
        <ele>74</ele>
        <time>2022-05-28T07:47:19.009Z</time>
      </trkpt>
      <trkpt lat="47.01066" lon="-1.24371">
        <ele>73</ele>
        <time>2022-05-28T07:47:55.786Z</time>
      </trkpt>
      <trkpt lat="47.01101" lon="-1.24394">
        <ele>72</ele>
        <time>2022-05-28T07:48:01.012Z</time>
      </trkpt>
      <trkpt lat="47.01136" lon="-1.24409">
        <ele>71</ele>
        <time>2022-05-28T07:48:05.928Z</time>
      </trkpt>
      <trkpt lat="47.01187" lon="-1.24426">
        <ele>71</ele>
        <time>2022-05-28T07:48:14.877Z</time>
      </trkpt>
      <trkpt lat="47.01252" lon="-1.24441">
        <ele>71</ele>
        <time>2022-05-28T07:48:26.136Z</time>
      </trkpt>
      <trkpt lat="47.01302" lon="-1.24457">
        <ele>71</ele>
        <time>2022-05-28T07:48:34.892Z</time>
      </trkpt>
      <trkpt lat="47.01345" lon="-1.24475">
        <ele>71</ele>
        <time>2022-05-28T07:48:42.544Z</time>
      </trkpt>
      <trkpt lat="47.01385" lon="-1.24502">
        <ele>71</ele>
        <time>2022-05-28T07:48:50.078Z</time>
      </trkpt>
      <trkpt lat="47.01531" lon="-1.2461">
        <ele>70</ele>
        <time>2022-05-28T07:49:16.507Z</time>
      </trkpt>
      <trkpt lat="47.01552" lon="-1.24641">
        <ele>69</ele>
        <time>2022-05-28T07:49:20.337Z</time>
      </trkpt>
      <trkpt lat="47.01561" lon="-1.24667">
        <ele>69</ele>
        <time>2022-05-28T07:49:23.739Z</time>
      </trkpt>
      <trkpt lat="47.01571" lon="-1.24773">
        <ele>69</ele>
        <time>2022-05-28T07:49:36.223Z</time>
      </trkpt>
      <trkpt lat="47.01584" lon="-1.2482">
        <ele>70</ele>
        <time>2022-05-28T07:49:44.225Z</time>
      </trkpt>
      <trkpt lat="47.01607" lon="-1.24868">
        <ele>70</ele>
        <time>2022-05-28T07:49:51.069Z</time>
      </trkpt>
      <trkpt lat="47.01667" lon="-1.24979">
        <ele>70</ele>
        <time>2022-05-28T07:50:07.594Z</time>
      </trkpt>
      <trkpt lat="47.01688" lon="-1.25009">
        <ele>70</ele>
        <time>2022-05-28T07:50:12.610Z</time>
      </trkpt>
      <trkpt lat="47.01717" lon="-1.25031">
        <ele>70</ele>
        <time>2022-05-28T07:50:18.197Z</time>
      </trkpt>
      <trkpt lat="47.01735" lon="-1.25033">
        <ele>70</ele>
        <time>2022-05-28T07:50:21.285Z</time>
      </trkpt>
      <trkpt lat="47.01767" lon="-1.25026">
        <ele>70</ele>
        <time>2022-05-28T07:50:26.822Z</time>
      </trkpt>
      <trkpt lat="47.01821" lon="-1.25002">
        <ele>69</ele>
        <time>2022-05-28T07:50:35.057Z</time>
      </trkpt>
      <trkpt lat="47.0183" lon="-1.25">
        <ele>69</ele>
        <time>2022-05-28T07:50:36.614Z</time>
      </trkpt>
      <trkpt lat="47.01855" lon="-1.25002">
        <ele>69</ele>
        <time>2022-05-28T07:50:40.898Z</time>
      </trkpt>
      <trkpt lat="47.01867" lon="-1.25007">
        <ele>69</ele>
        <time>2022-05-28T07:50:43.033Z</time>
      </trkpt>
      <trkpt lat="47.01902" lon="-1.25029">
        <ele>70</ele>
        <time>2022-05-28T07:50:51.583Z</time>
      </trkpt>
      <trkpt lat="47.01939" lon="-1.25065">
        <ele>70</ele>
        <time>2022-05-28T07:50:59.180Z</time>
      </trkpt>
      <trkpt lat="47.02105" lon="-1.25265">
        <ele>70</ele>
        <time>2022-05-28T07:51:35.938Z</time>
      </trkpt>
      <trkpt lat="47.02269" lon="-1.25524">
        <ele>65</ele>
        <time>2022-05-28T07:52:10.228Z</time>
      </trkpt>
      <trkpt lat="47.02289" lon="-1.2555">
        <ele>65</ele>
        <time>2022-05-28T07:52:14.801Z</time>
      </trkpt>
      <trkpt lat="47.02297" lon="-1.25559">
        <ele>64</ele>
        <time>2022-05-28T07:52:15.836Z</time>
      </trkpt>
      <trkpt lat="47.02317" lon="-1.25574">
        <ele>64</ele>
        <time>2022-05-28T07:52:19.679Z</time>
      </trkpt>
      <trkpt lat="47.02365" lon="-1.25592">
        <ele>65</ele>
        <time>2022-05-28T07:52:30.084Z</time>
      </trkpt>
      <trkpt lat="47.02387" lon="-1.25607">
        <ele>65</ele>
        <time>2022-05-28T07:52:34.236Z</time>
      </trkpt>
      <trkpt lat="47.02406" lon="-1.25626">
        <ele>66</ele>
        <time>2022-05-28T07:52:40.561Z</time>
      </trkpt>
      <trkpt lat="47.02433" lon="-1.25667">
        <ele>67</ele>
        <time>2022-05-28T07:52:49.236Z</time>
      </trkpt>
      <trkpt lat="47.02479" lon="-1.25771">
        <ele>64</ele>
        <time>2022-05-28T07:52:59.941Z</time>
      </trkpt>
      <trkpt lat="47.02503" lon="-1.25813">
        <ele>63</ele>
        <time>2022-05-28T07:53:05.004Z</time>
      </trkpt>
      <trkpt lat="47.02544" lon="-1.25868">
        <ele>62</ele>
        <time>2022-05-28T07:53:13.093Z</time>
      </trkpt>
      <trkpt lat="47.02577" lon="-1.25902">
        <ele>62</ele>
        <time>2022-05-28T07:53:19.993Z</time>
      </trkpt>
      <trkpt lat="47.0268" lon="-1.26053">
        <ele>60</ele>
        <time>2022-05-28T07:53:41.984Z</time>
      </trkpt>
      <trkpt lat="47.02762" lon="-1.26154">
        <ele>61</ele>
        <time>2022-05-28T07:54:02.061Z</time>
      </trkpt>
      <trkpt lat="47.02833" lon="-1.26263">
        <ele>60</ele>
        <time>2022-05-28T07:54:18.138Z</time>
      </trkpt>
      <trkpt lat="47.02878" lon="-1.26339">
        <ele>57</ele>
        <time>2022-05-28T07:54:26.325Z</time>
      </trkpt>
      <trkpt lat="47.02898" lon="-1.2636">
        <ele>57</ele>
        <time>2022-05-28T07:54:30.533Z</time>
      </trkpt>
      <trkpt lat="47.02916" lon="-1.26393">
        <ele>57</ele>
        <time>2022-05-28T07:54:35.463Z</time>
      </trkpt>
      <trkpt lat="47.0293" lon="-1.26404">
        <ele>57</ele>
        <time>2022-05-28T07:54:38.180Z</time>
      </trkpt>
      <trkpt lat="47.02937" lon="-1.26413">
        <ele>57</ele>
        <time>2022-05-28T07:54:39.773Z</time>
      </trkpt>
      <trkpt lat="47.0295" lon="-1.26419">
        <ele>57</ele>
        <time>2022-05-28T07:54:42.105Z</time>
      </trkpt>
      <trkpt lat="47.03012" lon="-1.26466">
        <ele>57</ele>
        <time>2022-05-28T07:54:54.046Z</time>
      </trkpt>
      <trkpt lat="47.03046" lon="-1.26497">
        <ele>57</ele>
        <time>2022-05-28T07:55:00.896Z</time>
      </trkpt>
      <trkpt lat="47.03063" lon="-1.26516">
        <ele>57</ele>
        <time>2022-05-28T07:55:04.552Z</time>
      </trkpt>
      <trkpt lat="47.03078" lon="-1.26527">
        <ele>57</ele>
        <time>2022-05-28T07:55:07.422Z</time>
      </trkpt>
      <trkpt lat="47.03094" lon="-1.26534">
        <ele>56</ele>
        <time>2022-05-28T07:55:09.209Z</time>
      </trkpt>
      <trkpt lat="47.03125" lon="-1.26534">
        <ele>56</ele>
        <time>2022-05-28T07:55:14.514Z</time>
      </trkpt>
      <trkpt lat="47.03217" lon="-1.26512">
        <ele>57</ele>
        <time>2022-05-28T07:55:32.240Z</time>
      </trkpt>
      <trkpt lat="47.03273" lon="-1.26503">
        <ele>58</ele>
        <time>2022-05-28T07:55:43.767Z</time>
      </trkpt>
      <trkpt lat="47.03398" lon="-1.2649">
        <ele>58</ele>
        <time>2022-05-28T07:56:05.209Z</time>
      </trkpt>
      <trkpt lat="47.03461" lon="-1.26489">
        <ele>58</ele>
        <time>2022-05-28T07:56:15.990Z</time>
      </trkpt>
      <trkpt lat="47.03497" lon="-1.26494">
        <ele>59</ele>
        <time>2022-05-28T07:56:24.238Z</time>
      </trkpt>
      <trkpt lat="47.03514" lon="-1.26501">
        <ele>59</ele>
        <time>2022-05-28T07:56:27.259Z</time>
      </trkpt>
      <trkpt lat="47.03676" lon="-1.26597">
        <ele>58</ele>
        <time>2022-05-28T07:56:55.599Z</time>
      </trkpt>
      <trkpt lat="47.0372" lon="-1.26619">
        <ele>58</ele>
        <time>2022-05-28T07:57:03.553Z</time>
      </trkpt>
      <trkpt lat="47.03763" lon="-1.26622">
        <ele>58</ele>
        <time>2022-05-28T07:57:10.919Z</time>
      </trkpt>
      <trkpt lat="47.03816" lon="-1.26619">
        <ele>58</ele>
        <time>2022-05-28T07:57:19.995Z</time>
      </trkpt>
      <trkpt lat="47.03885" lon="-1.26621">
        <ele>57</ele>
        <time>2022-05-28T07:57:30.349Z</time>
      </trkpt>
      <trkpt lat="47.03944" lon="-1.26616">
        <ele>56</ele>
        <time>2022-05-28T07:57:39.033Z</time>
      </trkpt>
      <trkpt lat="47.0397" lon="-1.26616">
        <ele>55</ele>
        <time>2022-05-28T07:57:42.255Z</time>
      </trkpt>
      <trkpt lat="47.04051" lon="-1.26624">
        <ele>54</ele>
        <time>2022-05-28T07:57:54.668Z</time>
      </trkpt>
      <trkpt lat="47.0409" lon="-1.26634">
        <ele>54</ele>
        <time>2022-05-28T07:58:01.442Z</time>
      </trkpt>
      <trkpt lat="47.04199" lon="-1.26669">
        <ele>53</ele>
        <time>2022-05-28T07:58:19.018Z</time>
      </trkpt>
      <trkpt lat="47.04216" lon="-1.26671">
        <ele>53</ele>
        <time>2022-05-28T07:58:21.936Z</time>
      </trkpt>
      <trkpt lat="47.04285" lon="-1.26666">
        <ele>52</ele>
        <time>2022-05-28T07:58:32.303Z</time>
      </trkpt>
      <trkpt lat="47.04331" lon="-1.26671">
        <ele>52</ele>
        <time>2022-05-28T07:58:40.195Z</time>
      </trkpt>
      <trkpt lat="47.04372" lon="-1.26684">
        <ele>52</ele>
        <time>2022-05-28T07:58:47.372Z</time>
      </trkpt>
      <trkpt lat="47.04446" lon="-1.26714">
        <ele>51</ele>
        <time>2022-05-28T07:58:59.038Z</time>
      </trkpt>
      <trkpt lat="47.04485" lon="-1.26722">
        <ele>50</ele>
        <time>2022-05-28T07:59:04.434Z</time>
      </trkpt>
      <trkpt lat="47.04505" lon="-1.26723">
        <ele>50</ele>
        <time>2022-05-28T07:59:07.858Z</time>
      </trkpt>
      <trkpt lat="47.04543" lon="-1.2672">
        <ele>49</ele>
        <time>2022-05-28T07:59:13.035Z</time>
      </trkpt>
      <trkpt lat="47.04637" lon="-1.26707">
        <ele>48</ele>
        <time>2022-05-28T07:59:27.692Z</time>
      </trkpt>
      <trkpt lat="47.0473" lon="-1.26702">
        <ele>45</ele>
        <time>2022-05-28T07:59:39.776Z</time>
      </trkpt>
      <trkpt lat="47.04783" lon="-1.26693">
        <ele>45</ele>
        <time>2022-05-28T07:59:48.905Z</time>
      </trkpt>
      <trkpt lat="47.04858" lon="-1.26664">
        <ele>46</ele>
        <time>2022-05-28T08:00:03.986Z</time>
      </trkpt>
      <trkpt lat="47.04882" lon="-1.26659">
        <ele>47</ele>
        <time>2022-05-28T08:00:10.474Z</time>
      </trkpt>
      <trkpt lat="47.04922" lon="-1.26663">
        <ele>48</ele>
        <time>2022-05-28T08:00:19.345Z</time>
      </trkpt>
      <trkpt lat="47.04923" lon="-1.26656">
        <ele>48</ele>
        <time>2022-05-28T08:00:20.179Z</time>
      </trkpt>
      <trkpt lat="47.04929" lon="-1.26657">
        <ele>48</ele>
        <time>2022-05-28T08:00:21.212Z</time>
      </trkpt>
      <trkpt lat="47.04929" lon="-1.26665">
        <ele>48</ele>
        <time>2022-05-28T08:00:22.145Z</time>
      </trkpt>
      <trkpt lat="47.04965" lon="-1.26696">
        <ele>47</ele>
        <time>2022-05-28T08:00:27.930Z</time>
      </trkpt>
      <trkpt lat="47.04991" lon="-1.26729">
        <ele>47</ele>
        <time>2022-05-28T08:00:33.812Z</time>
      </trkpt>
      <trkpt lat="47.05029" lon="-1.26797">
        <ele>46</ele>
        <time>2022-05-28T08:00:42.634Z</time>
      </trkpt>
      <trkpt lat="47.05077" lon="-1.26893">
        <ele>45</ele>
        <time>2022-05-28T08:00:55.039Z</time>
      </trkpt>
      <trkpt lat="47.05088" lon="-1.2693">
        <ele>45</ele>
        <time>2022-05-28T08:00:59.745Z</time>
      </trkpt>
      <trkpt lat="47.05102" lon="-1.27038">
        <ele>45</ele>
        <time>2022-05-28T08:01:12.562Z</time>
      </trkpt>
      <trkpt lat="47.05104" lon="-1.27069">
        <ele>45</ele>
        <time>2022-05-28T08:01:16.192Z</time>
      </trkpt>
      <trkpt lat="47.05094" lon="-1.27301">
        <ele>47</ele>
        <time>2022-05-28T08:01:46.905Z</time>
      </trkpt>
      <trkpt lat="47.05102" lon="-1.27586">
        <ele>46</ele>
        <time>2022-05-28T08:02:18.598Z</time>
      </trkpt>
      <trkpt lat="47.05109" lon="-1.27662">
        <ele>47</ele>
        <time>2022-05-28T08:02:29.449Z</time>
      </trkpt>
      <trkpt lat="47.05115" lon="-1.27693">
        <ele>47</ele>
        <time>2022-05-28T08:02:33.206Z</time>
      </trkpt>
      <trkpt lat="47.05161" lon="-1.27861">
        <ele>48</ele>
        <time>2022-05-28T08:02:56.053Z</time>
      </trkpt>
      <trkpt lat="47.05179" lon="-1.27939">
        <ele>49</ele>
        <time>2022-05-28T08:03:07.542Z</time>
      </trkpt>
      <trkpt lat="47.05202" lon="-1.28066">
        <ele>51</ele>
        <time>2022-05-28T08:03:26.792Z</time>
      </trkpt>
      <trkpt lat="47.05233" lon="-1.28199">
        <ele>50</ele>
        <time>2022-05-28T08:03:41.680Z</time>
      </trkpt>
      <trkpt lat="47.05262" lon="-1.28276">
        <ele>50</ele>
        <time>2022-05-28T08:03:51.937Z</time>
      </trkpt>
      <trkpt lat="47.05264" lon="-1.28295">
        <ele>51</ele>
        <time>2022-05-28T08:03:57.490Z</time>
      </trkpt>
      <trkpt lat="47.0527" lon="-1.28309">
        <ele>51</ele>
        <time>2022-05-28T08:03:59.418Z</time>
      </trkpt>
      <trkpt lat="47.05278" lon="-1.28317">
        <ele>51</ele>
        <time>2022-05-28T08:04:01.074Z</time>
      </trkpt>
      <trkpt lat="47.05303" lon="-1.2833">
        <ele>50</ele>
        <time>2022-05-28T08:04:04.379Z</time>
      </trkpt>
      <trkpt lat="47.05338" lon="-1.28386">
        <ele>49</ele>
        <time>2022-05-28T08:04:11.835Z</time>
      </trkpt>
      <trkpt lat="47.05353" lon="-1.28429">
        <ele>49</ele>
        <time>2022-05-28T08:04:17.467Z</time>
      </trkpt>
      <trkpt lat="47.05376" lon="-1.28518">
        <ele>49</ele>
        <time>2022-05-28T08:04:28.564Z</time>
      </trkpt>
      <trkpt lat="47.05384" lon="-1.2856">
        <ele>49</ele>
        <time>2022-05-28T08:04:33.648Z</time>
      </trkpt>
      <trkpt lat="47.05385" lon="-1.28593">
        <ele>49</ele>
        <time>2022-05-28T08:04:37.499Z</time>
      </trkpt>
      <trkpt lat="47.05379" lon="-1.28666">
        <ele>47</ele>
        <time>2022-05-28T08:04:43.641Z</time>
      </trkpt>
      <trkpt lat="47.05382" lon="-1.28711">
        <ele>46</ele>
        <time>2022-05-28T08:04:47.634Z</time>
      </trkpt>
      <trkpt lat="47.05389" lon="-1.28751">
        <ele>44</ele>
        <time>2022-05-28T08:04:50.522Z</time>
      </trkpt>
      <trkpt lat="47.05408" lon="-1.288">
        <ele>44</ele>
        <time>2022-05-28T08:04:57.095Z</time>
      </trkpt>
      <trkpt lat="47.05476" lon="-1.2893">
        <ele>44</ele>
        <time>2022-05-28T08:05:16.201Z</time>
      </trkpt>
      <trkpt lat="47.05533" lon="-1.29084">
        <ele>45</ele>
        <time>2022-05-28T08:05:38.375Z</time>
      </trkpt>
      <trkpt lat="47.05565" lon="-1.29137">
        <ele>44</ele>
        <time>2022-05-28T08:05:45.241Z</time>
      </trkpt>
      <trkpt lat="47.05592" lon="-1.29169">
        <ele>44</ele>
        <time>2022-05-28T08:05:51.179Z</time>
      </trkpt>
      <trkpt lat="47.0562" lon="-1.29195">
        <ele>44</ele>
        <time>2022-05-28T08:05:56.848Z</time>
      </trkpt>
      <trkpt lat="47.05641" lon="-1.29209">
        <ele>45</ele>
        <time>2022-05-28T08:06:03.183Z</time>
      </trkpt>
      <trkpt lat="47.0571" lon="-1.2924">
        <ele>45</ele>
        <time>2022-05-28T08:06:15.530Z</time>
      </trkpt>
      <trkpt lat="47.05733" lon="-1.29255">
        <ele>45</ele>
        <time>2022-05-28T08:06:19.836Z</time>
      </trkpt>
      <trkpt lat="47.05756" lon="-1.29278">
        <ele>45</ele>
        <time>2022-05-28T08:06:24.598Z</time>
      </trkpt>
      <trkpt lat="47.05801" lon="-1.29355">
        <ele>45</ele>
        <time>2022-05-28T08:06:36.424Z</time>
      </trkpt>
      <trkpt lat="47.05818" lon="-1.29379">
        <ele>45</ele>
        <time>2022-05-28T08:06:40.460Z</time>
      </trkpt>
      <trkpt lat="47.05838" lon="-1.29398">
        <ele>45</ele>
        <time>2022-05-28T08:06:44.537Z</time>
      </trkpt>
      <trkpt lat="47.05889" lon="-1.29435">
        <ele>44</ele>
        <time>2022-05-28T08:06:52.850Z</time>
      </trkpt>
      <trkpt lat="47.05904" lon="-1.29453">
        <ele>44</ele>
        <time>2022-05-28T08:06:56.165Z</time>
      </trkpt>
      <trkpt lat="47.05916" lon="-1.29475">
        <ele>44</ele>
        <time>2022-05-28T08:06:59.450Z</time>
      </trkpt>
      <trkpt lat="47.05928" lon="-1.29507">
        <ele>44</ele>
        <time>2022-05-28T08:07:03.708Z</time>
      </trkpt>
      <trkpt lat="47.06048" lon="-1.29866">
        <ele>40</ele>
        <time>2022-05-28T08:07:44.512Z</time>
      </trkpt>
      <trkpt lat="47.06056" lon="-1.29901">
        <ele>39</ele>
        <time>2022-05-28T08:07:47.599Z</time>
      </trkpt>
      <trkpt lat="47.06057" lon="-1.29928">
        <ele>39</ele>
        <time>2022-05-28T08:07:50.751Z</time>
      </trkpt>
      <trkpt lat="47.06031" lon="-1.3004">
        <ele>39</ele>
        <time>2022-05-28T08:08:04.543Z</time>
      </trkpt>
      <trkpt lat="47.06026" lon="-1.30078">
        <ele>38</ele>
        <time>2022-05-28T08:08:07.823Z</time>
      </trkpt>
      <trkpt lat="47.06025" lon="-1.30145">
        <ele>39</ele>
        <time>2022-05-28T08:08:17.592Z</time>
      </trkpt>
      <trkpt lat="47.06027" lon="-1.30184">
        <ele>39</ele>
        <time>2022-05-28T08:08:22.151Z</time>
      </trkpt>
      <trkpt lat="47.06038" lon="-1.30244">
        <ele>39</ele>
        <time>2022-05-28T08:08:29.394Z</time>
      </trkpt>
      <trkpt lat="47.06091" lon="-1.30448">
        <ele>39</ele>
        <time>2022-05-28T08:08:54.843Z</time>
      </trkpt>
      <trkpt lat="47.06124" lon="-1.3059">
        <ele>39</ele>
        <time>2022-05-28T08:09:12.332Z</time>
      </trkpt>
      <trkpt lat="47.0615" lon="-1.3066">
        <ele>38</ele>
        <time>2022-05-28T08:09:20.212Z</time>
      </trkpt>
      <trkpt lat="47.06178" lon="-1.30721">
        <ele>38</ele>
        <time>2022-05-28T08:09:28.786Z</time>
      </trkpt>
      <trkpt lat="47.06189" lon="-1.30736">
        <ele>38</ele>
        <time>2022-05-28T08:09:31.355Z</time>
      </trkpt>
      <trkpt lat="47.06176" lon="-1.30839">
        <ele>37</ele>
        <time>2022-05-28T08:09:42.106Z</time>
      </trkpt>
      <trkpt lat="47.06154" lon="-1.30947">
        <ele>38</ele>
        <time>2022-05-28T08:09:57.057Z</time>
      </trkpt>
      <trkpt lat="47.06154" lon="-1.30961">
        <ele>38</ele>
        <time>2022-05-28T08:09:58.689Z</time>
      </trkpt>
      <trkpt lat="47.06118" lon="-1.30964">
        <ele>38</ele>
        <time>2022-05-28T08:10:04.859Z</time>
      </trkpt>
      <trkpt lat="47.06053" lon="-1.30962">
        <ele>39</ele>
        <time>2022-05-28T08:10:17.832Z</time>
      </trkpt>
      <trkpt lat="47.06051" lon="-1.30972">
        <ele>39</ele>
        <time>2022-05-28T08:10:19.047Z</time>
      </trkpt>
      <trkpt lat="47.06045" lon="-1.30973">
        <ele>40</ele>
        <time>2022-05-28T08:10:23.475Z</time>
      </trkpt>
      <trkpt lat="47.0604" lon="-1.30967">
        <ele>40</ele>
        <time>2022-05-28T08:10:24.580Z</time>
      </trkpt>
      <trkpt lat="47.06021" lon="-1.30977">
        <ele>40</ele>
        <time>2022-05-28T08:10:28.034Z</time>
      </trkpt>
      <trkpt lat="47.06004" lon="-1.30991">
        <ele>41</ele>
        <time>2022-05-28T08:10:33.950Z</time>
      </trkpt>
      <trkpt lat="47.0599" lon="-1.30991">
        <ele>41</ele>
        <time>2022-05-28T08:10:36.345Z</time>
      </trkpt>
      <trkpt lat="47.0592" lon="-1.31005">
        <ele>43</ele>
        <time>2022-05-28T08:10:52.580Z</time>
      </trkpt>
      <trkpt lat="47.0592" lon="-1.30998">
        <ele>43</ele>
        <time>2022-05-28T08:10:53.396Z</time>
      </trkpt>
      <trkpt lat="47.05851" lon="-1.30991">
        <ele>44</ele>
        <time>2022-05-28T08:11:07.065Z</time>
      </trkpt>
      <trkpt lat="47.05771" lon="-1.30976">
        <ele>44</ele>
        <time>2022-05-28T08:11:20.864Z</time>
      </trkpt>
      <trkpt lat="47.05673" lon="-1.30962">
        <ele>45</ele>
        <time>2022-05-28T08:11:39.481Z</time>
      </trkpt>
      <trkpt lat="47.05639" lon="-1.30954">
        <ele>45</ele>
        <time>2022-05-28T08:11:45.373Z</time>
      </trkpt>
      <trkpt lat="47.05486" lon="-1.30895">
        <ele>45</ele>
        <time>2022-05-28T08:12:12.441Z</time>
      </trkpt>
      <trkpt lat="47.05462" lon="-1.30883">
        <ele>45</ele>
        <time>2022-05-28T08:12:16.779Z</time>
      </trkpt>
      <trkpt lat="47.05462" lon="-1.30889">
        <ele>45</ele>
        <time>2022-05-28T08:12:17.479Z</time>
      </trkpt>
      <trkpt lat="47.05452" lon="-1.30894">
        <ele>45</ele>
        <time>2022-05-28T08:12:19.286Z</time>
      </trkpt>
      <trkpt lat="47.05376" lon="-1.30895">
        <ele>45</ele>
        <time>2022-05-28T08:12:32.291Z</time>
      </trkpt>
      <trkpt lat="47.05322" lon="-1.30902">
        <ele>46</ele>
        <time>2022-05-28T08:12:43.465Z</time>
      </trkpt>
      <trkpt lat="47.05268" lon="-1.30913">
        <ele>45</ele>
        <time>2022-05-28T08:12:51.380Z</time>
      </trkpt>
      <trkpt lat="47.05213" lon="-1.30928">
        <ele>45</ele>
        <time>2022-05-28T08:13:00.953Z</time>
      </trkpt>
      <trkpt lat="47.0517" lon="-1.30944">
        <ele>45</ele>
        <time>2022-05-28T08:13:08.543Z</time>
      </trkpt>
      <trkpt lat="47.05054" lon="-1.31002">
        <ele>43</ele>
        <time>2022-05-28T08:13:26.643Z</time>
      </trkpt>
      <trkpt lat="47.0483" lon="-1.31073">
        <ele>41</ele>
        <time>2022-05-28T08:14:02.816Z</time>
      </trkpt>
      <trkpt lat="47.04726" lon="-1.31125">
        <ele>42</ele>
        <time>2022-05-28T08:14:23.369Z</time>
      </trkpt>
      <trkpt lat="47.04696" lon="-1.31136">
        <ele>42</ele>
        <time>2022-05-28T08:14:28.660Z</time>
      </trkpt>
      <trkpt lat="47.04645" lon="-1.31151">
        <ele>42</ele>
        <time>2022-05-28T08:14:37.560Z</time>
      </trkpt>
      <trkpt lat="47.04485" lon="-1.31169">
        <ele>42</ele>
        <time>2022-05-28T08:15:05.018Z</time>
      </trkpt>
      <trkpt lat="47.04466" lon="-1.31174">
        <ele>42</ele>
        <time>2022-05-28T08:15:08.320Z</time>
      </trkpt>
      <trkpt lat="47.04429" lon="-1.31187">
        <ele>42</ele>
        <time>2022-05-28T08:15:14.830Z</time>
      </trkpt>
      <trkpt lat="47.04378" lon="-1.31209">
        <ele>42</ele>
        <time>2022-05-28T08:15:23.926Z</time>
      </trkpt>
      <trkpt lat="47.04104" lon="-1.31297">
        <ele>43</ele>
        <time>2022-05-28T08:16:13.594Z</time>
      </trkpt>
      <trkpt lat="47.04082" lon="-1.31307">
        <ele>43</ele>
        <time>2022-05-28T08:16:17.535Z</time>
      </trkpt>
      <trkpt lat="47.04034" lon="-1.31338">
        <ele>42</ele>
        <time>2022-05-28T08:16:25.103Z</time>
      </trkpt>
      <trkpt lat="47.03839" lon="-1.31507">
        <ele>43</ele>
        <time>2022-05-28T08:17:05.540Z</time>
      </trkpt>
      <trkpt lat="47.03766" lon="-1.31584">
        <ele>43</ele>
        <time>2022-05-28T08:17:20.924Z</time>
      </trkpt>
      <trkpt lat="47.03716" lon="-1.31621">
        <ele>42</ele>
        <time>2022-05-28T08:17:29.087Z</time>
      </trkpt>
      <trkpt lat="47.03655" lon="-1.31671">
        <ele>41</ele>
        <time>2022-05-28T08:17:39.587Z</time>
      </trkpt>
      <trkpt lat="47.03642" lon="-1.31673">
        <ele>41</ele>
        <time>2022-05-28T08:17:41.824Z</time>
      </trkpt>
      <trkpt lat="47.0339" lon="-1.31668">
        <ele>35</ele>
        <time>2022-05-28T08:18:16.797Z</time>
      </trkpt>
      <trkpt lat="47.0329" lon="-1.31639">
        <ele>38</ele>
        <time>2022-05-28T08:18:40.523Z</time>
      </trkpt>
      <trkpt lat="47.03215" lon="-1.31613">
        <ele>40</ele>
        <time>2022-05-28T08:18:57.768Z</time>
      </trkpt>
      <trkpt lat="47.03199" lon="-1.31614">
        <ele>41</ele>
        <time>2022-05-28T08:19:03.392Z</time>
      </trkpt>
      <trkpt lat="47.03132" lon="-1.31629">
        <ele>42</ele>
        <time>2022-05-28T08:19:16.827Z</time>
      </trkpt>
      <trkpt lat="47.03117" lon="-1.31629">
        <ele>43</ele>
        <time>2022-05-28T08:19:22.402Z</time>
      </trkpt>
      <trkpt lat="47.03" lon="-1.31604">
        <ele>43</ele>
        <time>2022-05-28T08:19:42.633Z</time>
      </trkpt>
      <trkpt lat="47.02986" lon="-1.31604">
        <ele>43</ele>
        <time>2022-05-28T08:19:45.029Z</time>
      </trkpt>
      <trkpt lat="47.02965" lon="-1.31609">
        <ele>42</ele>
        <time>2022-05-28T08:19:47.509Z</time>
      </trkpt>
      <trkpt lat="47.0294" lon="-1.31619">
        <ele>42</ele>
        <time>2022-05-28T08:19:51.943Z</time>
      </trkpt>
      <trkpt lat="47.02877" lon="-1.31653">
        <ele>41</ele>
        <time>2022-05-28T08:20:01.980Z</time>
      </trkpt>
      <trkpt lat="47.02843" lon="-1.31665">
        <ele>42</ele>
        <time>2022-05-28T08:20:10.042Z</time>
      </trkpt>
      <trkpt lat="47.02813" lon="-1.31672">
        <ele>42</ele>
        <time>2022-05-28T08:20:15.240Z</time>
      </trkpt>
      <trkpt lat="47.02795" lon="-1.31681">
        <ele>42</ele>
        <time>2022-05-28T08:20:18.494Z</time>
      </trkpt>
      <trkpt lat="47.02772" lon="-1.31705">
        <ele>42</ele>
        <time>2022-05-28T08:20:23.323Z</time>
      </trkpt>
      <trkpt lat="47.02755" lon="-1.31727">
        <ele>42</ele>
        <time>2022-05-28T08:20:27.202Z</time>
      </trkpt>
      <trkpt lat="47.02739" lon="-1.31757">
        <ele>42</ele>
        <time>2022-05-28T08:20:31.645Z</time>
      </trkpt>
      <trkpt lat="47.0273" lon="-1.31787">
        <ele>42</ele>
        <time>2022-05-28T08:20:35.468Z</time>
      </trkpt>
      <trkpt lat="47.02729" lon="-1.31808">
        <ele>42</ele>
        <time>2022-05-28T08:20:37.923Z</time>
      </trkpt>
      <trkpt lat="47.02733" lon="-1.31878">
        <ele>42</ele>
        <time>2022-05-28T08:20:46.116Z</time>
      </trkpt>
      <trkpt lat="47.02731" lon="-1.31929">
        <ele>42</ele>
        <time>2022-05-28T08:20:52.075Z</time>
      </trkpt>
      <trkpt lat="47.0272" lon="-1.32001">
        <ele>43</ele>
        <time>2022-05-28T08:21:02.603Z</time>
      </trkpt>
      <trkpt lat="47.02695" lon="-1.32069">
        <ele>45</ele>
        <time>2022-05-28T08:21:16.151Z</time>
      </trkpt>
      <trkpt lat="47.02624" lon="-1.32186">
        <ele>48</ele>
        <time>2022-05-28T08:21:40.629Z</time>
      </trkpt>
      <trkpt lat="47.02543" lon="-1.32263">
        <ele>53</ele>
        <time>2022-05-28T08:22:10.111Z</time>
      </trkpt>
      <trkpt lat="47.02484" lon="-1.3231">
        <ele>56</ele>
        <time>2022-05-28T08:22:28.855Z</time>
      </trkpt>
      <trkpt lat="47.02353" lon="-1.32404">
        <ele>58</ele>
        <time>2022-05-28T08:22:57.453Z</time>
      </trkpt>
      <trkpt lat="47.02229" lon="-1.32502">
        <ele>56</ele>
        <time>2022-05-28T08:23:18.639Z</time>
      </trkpt>
      <trkpt lat="47.02138" lon="-1.32578">
        <ele>55</ele>
        <time>2022-05-28T08:23:35.047Z</time>
      </trkpt>
      <trkpt lat="47.02116" lon="-1.32589">
        <ele>54</ele>
        <time>2022-05-28T08:23:37.834Z</time>
      </trkpt>
      <trkpt lat="47.02101" lon="-1.32593">
        <ele>54</ele>
        <time>2022-05-28T08:23:40.443Z</time>
      </trkpt>
      <trkpt lat="47.02041" lon="-1.32603">
        <ele>52</ele>
        <time>2022-05-28T08:23:48.231Z</time>
      </trkpt>
      <trkpt lat="47.02009" lon="-1.32612">
        <ele>52</ele>
        <time>2022-05-28T08:23:53.806Z</time>
      </trkpt>
      <trkpt lat="47.01983" lon="-1.32629">
        <ele>52</ele>
        <time>2022-05-28T08:23:58.677Z</time>
      </trkpt>
      <trkpt lat="47.01944" lon="-1.32661">
        <ele>52</ele>
        <time>2022-05-28T08:24:06.323Z</time>
      </trkpt>
      <trkpt lat="47.01932" lon="-1.32667">
        <ele>53</ele>
        <time>2022-05-28T08:24:11.887Z</time>
      </trkpt>
      <trkpt lat="47.01865" lon="-1.32691">
        <ele>54</ele>
        <time>2022-05-28T08:24:25.523Z</time>
      </trkpt>
      <trkpt lat="47.01811" lon="-1.32707">
        <ele>54</ele>
        <time>2022-05-28T08:24:34.949Z</time>
      </trkpt>
      <trkpt lat="47.01759" lon="-1.32707">
        <ele>54</ele>
        <time>2022-05-28T08:24:43.847Z</time>
      </trkpt>
      <trkpt lat="47.01702" lon="-1.32719">
        <ele>53</ele>
        <time>2022-05-28T08:24:52.277Z</time>
      </trkpt>
      <trkpt lat="47.01657" lon="-1.32724">
        <ele>53</ele>
        <time>2022-05-28T08:24:59.998Z</time>
      </trkpt>
      <trkpt lat="47.01555" lon="-1.32724">
        <ele>52</ele>
        <time>2022-05-28T08:25:15.945Z</time>
      </trkpt>
      <trkpt lat="47.01523" lon="-1.32732">
        <ele>51</ele>
        <time>2022-05-28T08:25:20.206Z</time>
      </trkpt>
      <trkpt lat="47.01428" lon="-1.32765">
        <ele>50</ele>
        <time>2022-05-28T08:25:35.410Z</time>
      </trkpt>
      <trkpt lat="47.01389" lon="-1.32773">
        <ele>49</ele>
        <time>2022-05-28T08:25:40.805Z</time>
      </trkpt>
      <trkpt lat="47.01366" lon="-1.32774">
        <ele>49</ele>
        <time>2022-05-28T08:25:44.742Z</time>
      </trkpt>
      <trkpt lat="47.01329" lon="-1.32769">
        <ele>48</ele>
        <time>2022-05-28T08:25:49.771Z</time>
      </trkpt>
      <trkpt lat="47.01232" lon="-1.32748">
        <ele>48</ele>
        <time>2022-05-28T08:26:06.549Z</time>
      </trkpt>
      <trkpt lat="47.01208" lon="-1.32746">
        <ele>49</ele>
        <time>2022-05-28T08:26:13.010Z</time>
      </trkpt>
      <trkpt lat="47.01077" lon="-1.32749">
        <ele>49</ele>
        <time>2022-05-28T08:26:35.428Z</time>
      </trkpt>
      <trkpt lat="47.01046" lon="-1.32752">
        <ele>49</ele>
        <time>2022-05-28T08:26:40.744Z</time>
      </trkpt>
      <trkpt lat="47.01016" lon="-1.32765">
        <ele>48</ele>
        <time>2022-05-28T08:26:44.814Z</time>
      </trkpt>
      <trkpt lat="47.00959" lon="-1.32799">
        <ele>49</ele>
        <time>2022-05-28T08:26:57.206Z</time>
      </trkpt>
      <trkpt lat="47.00922" lon="-1.32816">
        <ele>50</ele>
        <time>2022-05-28T08:27:05.866Z</time>
      </trkpt>
      <trkpt lat="47.00898" lon="-1.32818">
        <ele>50</ele>
        <time>2022-05-28T08:27:09.980Z</time>
      </trkpt>
      <trkpt lat="47.00898" lon="-1.32826">
        <ele>50</ele>
        <time>2022-05-28T08:27:10.913Z</time>
      </trkpt>
      <trkpt lat="47.00895" lon="-1.32831">
        <ele>50</ele>
        <time>2022-05-28T08:27:11.690Z</time>
      </trkpt>
      <trkpt lat="47.00889" lon="-1.32833">
        <ele>50</ele>
        <time>2022-05-28T08:27:12.743Z</time>
      </trkpt>
      <trkpt lat="47.00884" lon="-1.32831">
        <ele>50</ele>
        <time>2022-05-28T08:27:13.630Z</time>
      </trkpt>
      <trkpt lat="47.0088" lon="-1.32821">
        <ele>50</ele>
        <time>2022-05-28T08:27:14.983Z</time>
      </trkpt>
      <trkpt lat="47.00859" lon="-1.3282">
        <ele>50</ele>
        <time>2022-05-28T08:27:18.578Z</time>
      </trkpt>
      <trkpt lat="47.00844" lon="-1.32824">
        <ele>50</ele>
        <time>2022-05-28T08:27:21.186Z</time>
      </trkpt>
      <trkpt lat="47.00829" lon="-1.32835">
        <ele>50</ele>
        <time>2022-05-28T08:27:24.056Z</time>
      </trkpt>
      <trkpt lat="47.00782" lon="-1.32878">
        <ele>49</ele>
        <time>2022-05-28T08:27:32.119Z</time>
      </trkpt>
      <trkpt lat="47.00676" lon="-1.32987">
        <ele>45</ele>
        <time>2022-05-28T08:27:49.103Z</time>
      </trkpt>
      <trkpt lat="47.00648" lon="-1.3301">
        <ele>45</ele>
        <time>2022-05-28T08:27:54.594Z</time>
      </trkpt>
      <trkpt lat="47.00616" lon="-1.3302">
        <ele>45</ele>
        <time>2022-05-28T08:28:00.193Z</time>
      </trkpt>
      <trkpt lat="47.00532" lon="-1.33028">
        <ele>44</ele>
        <time>2022-05-28T08:28:13.113Z</time>
      </trkpt>
      <trkpt lat="47.00489" lon="-1.3304">
        <ele>44</ele>
        <time>2022-05-28T08:28:20.603Z</time>
      </trkpt>
      <trkpt lat="47.00472" lon="-1.33064">
        <ele>44</ele>
        <time>2022-05-28T08:28:24.640Z</time>
      </trkpt>
      <trkpt lat="47.00453" lon="-1.33076">
        <ele>45</ele>
        <time>2022-05-28T08:28:30.687Z</time>
      </trkpt>
      <trkpt lat="47.00352" lon="-1.33125">
        <ele>45</ele>
        <time>2022-05-28T08:28:48.890Z</time>
      </trkpt>
      <trkpt lat="47.00334" lon="-1.3313">
        <ele>45</ele>
        <time>2022-05-28T08:28:52.025Z</time>
      </trkpt>
      <trkpt lat="47.00326" lon="-1.33131">
        <ele>44</ele>
        <time>2022-05-28T08:28:52.849Z</time>
      </trkpt>
      <trkpt lat="47.0032" lon="-1.33129">
        <ele>44</ele>
        <time>2022-05-28T08:28:53.902Z</time>
      </trkpt>
      <trkpt lat="47.00303" lon="-1.33115">
        <ele>43</ele>
        <time>2022-05-28T08:28:56.110Z</time>
      </trkpt>
      <trkpt lat="47.00269" lon="-1.33112">
        <ele>42</ele>
        <time>2022-05-28T08:29:00.632Z</time>
      </trkpt>
      <trkpt lat="47.00228" lon="-1.33126">
        <ele>41</ele>
        <time>2022-05-28T08:29:06.476Z</time>
      </trkpt>
      <trkpt lat="47.00198" lon="-1.33147">
        <ele>41</ele>
        <time>2022-05-28T08:29:12.164Z</time>
      </trkpt>
      <trkpt lat="47.00183" lon="-1.33162">
        <ele>41</ele>
        <time>2022-05-28T08:29:15.271Z</time>
      </trkpt>
      <trkpt lat="47.00174" lon="-1.33174">
        <ele>40</ele>
        <time>2022-05-28T08:29:16.520Z</time>
      </trkpt>
      <trkpt lat="47.00177" lon="-1.33177">
        <ele>41</ele>
        <time>2022-05-28T08:29:19.183Z</time>
      </trkpt>
      <trkpt lat="47.00177" lon="-1.33188">
        <ele>41</ele>
        <time>2022-05-28T08:29:20.466Z</time>
      </trkpt>
      <trkpt lat="47.00169" lon="-1.33193">
        <ele>41</ele>
        <time>2022-05-28T08:29:21.954Z</time>
      </trkpt>
      <trkpt lat="47.00163" lon="-1.33185">
        <ele>40</ele>
        <time>2022-05-28T08:29:22.787Z</time>
      </trkpt>
      <trkpt lat="47.00164" lon="-1.33177">
        <ele>40</ele>
        <time>2022-05-28T08:29:23.736Z</time>
      </trkpt>
      <trkpt lat="46.99939" lon="-1.33014">
        <ele>40</ele>
        <time>2022-05-28T08:30:06.678Z</time>
      </trkpt>
      <trkpt lat="46.99878" lon="-1.32966">
        <ele>43</ele>
        <time>2022-05-28T08:30:25.686Z</time>
      </trkpt>
      <trkpt lat="46.99703" lon="-1.3284">
        <ele>50</ele>
        <time>2022-05-28T08:31:14.615Z</time>
      </trkpt>
      <trkpt lat="46.99677" lon="-1.3282">
        <ele>50</ele>
        <time>2022-05-28T08:31:19.639Z</time>
      </trkpt>
      <trkpt lat="46.9966" lon="-1.32801">
        <ele>51</ele>
        <time>2022-05-28T08:31:25.765Z</time>
      </trkpt>
      <trkpt lat="46.9965" lon="-1.32807">
        <ele>50</ele>
        <time>2022-05-28T08:31:26.874Z</time>
      </trkpt>
      <trkpt lat="46.99641" lon="-1.32804">
        <ele>50</ele>
        <time>2022-05-28T08:31:28.454Z</time>
      </trkpt>
      <trkpt lat="46.99636" lon="-1.32798">
        <ele>50</ele>
        <time>2022-05-28T08:31:29.559Z</time>
      </trkpt>
      <trkpt lat="46.99634" lon="-1.32791">
        <ele>50</ele>
        <time>2022-05-28T08:31:30.445Z</time>
      </trkpt>
      <trkpt lat="46.99611" lon="-1.3277">
        <ele>50</ele>
        <time>2022-05-28T08:31:35.081Z</time>
      </trkpt>
      <trkpt lat="46.99589" lon="-1.32758">
        <ele>50</ele>
        <time>2022-05-28T08:31:39.098Z</time>
      </trkpt>
      <trkpt lat="46.99485" lon="-1.32684">
        <ele>52</ele>
        <time>2022-05-28T08:32:02.637Z</time>
      </trkpt>
      <trkpt lat="46.98467" lon="-1.31948">
        <ele>38</ele>
        <time>2022-05-28T08:34:56.164Z</time>
      </trkpt>
      <trkpt lat="46.98455" lon="-1.3194">
        <ele>38</ele>
        <time>2022-05-28T08:34:58.420Z</time>
      </trkpt>
      <trkpt lat="46.9842" lon="-1.31929">
        <ele>39</ele>
        <time>2022-05-28T08:35:06.611Z</time>
      </trkpt>
      <trkpt lat="46.98411" lon="-1.31938">
        <ele>39</ele>
        <time>2022-05-28T08:35:08.475Z</time>
      </trkpt>
      <trkpt lat="46.98401" lon="-1.31936">
        <ele>39</ele>
        <time>2022-05-28T08:35:10.202Z</time>
      </trkpt>
      <trkpt lat="46.98397" lon="-1.31931">
        <ele>39</ele>
        <time>2022-05-28T08:35:11.101Z</time>
      </trkpt>
      <trkpt lat="46.98397" lon="-1.3191">
        <ele>40</ele>
        <time>2022-05-28T08:35:16.657Z</time>
      </trkpt>
      <trkpt lat="46.98356" lon="-1.31865">
        <ele>41</ele>
        <time>2022-05-28T08:35:27.338Z</time>
      </trkpt>
      <trkpt lat="46.98266" lon="-1.31803">
        <ele>42</ele>
        <time>2022-05-28T08:35:46.120Z</time>
      </trkpt>
      <trkpt lat="46.98245" lon="-1.31782">
        <ele>43</ele>
        <time>2022-05-28T08:35:52.768Z</time>
      </trkpt>
      <trkpt lat="46.98239" lon="-1.31786">
        <ele>43</ele>
        <time>2022-05-28T08:35:53.896Z</time>
      </trkpt>
      <trkpt lat="46.98232" lon="-1.31784">
        <ele>43</ele>
        <time>2022-05-28T08:35:55.116Z</time>
      </trkpt>
      <trkpt lat="46.98227" lon="-1.31779">
        <ele>43</ele>
        <time>2022-05-28T08:35:56.151Z</time>
      </trkpt>
      <trkpt lat="46.98243" lon="-1.31745">
        <ele>44</ele>
        <time>2022-05-28T08:36:03.189Z</time>
      </trkpt>
      <trkpt lat="46.98344" lon="-1.31598">
        <ele>44</ele>
        <time>2022-05-28T08:36:27.543Z</time>
      </trkpt>
      <trkpt lat="46.98219" lon="-1.31405">
        <ele>47</ele>
        <time>2022-05-28T08:37:04.209Z</time>
      </trkpt>
      <trkpt lat="46.98177" lon="-1.31313">
        <ele>50</ele>
        <time>2022-05-28T08:37:24.050Z</time>
      </trkpt>
      <trkpt lat="46.98124" lon="-1.31104">
        <ele>51</ele>
        <time>2022-05-28T08:37:51.795Z</time>
      </trkpt>
      <trkpt lat="46.98147" lon="-1.30914">
        <ele>52</ele>
        <time>2022-05-28T08:38:16.052Z</time>
      </trkpt>
      <trkpt lat="46.98138" lon="-1.30888">
        <ele>52</ele>
        <time>2022-05-28T08:38:19.456Z</time>
      </trkpt>
      <trkpt lat="46.98149" lon="-1.30869">
        <ele>52</ele>
        <time>2022-05-28T08:38:22.365Z</time>
      </trkpt>
      <trkpt lat="46.98204" lon="-1.30614">
        <ele>54</ele>
        <time>2022-05-28T08:38:57.146Z</time>
      </trkpt>
      <trkpt lat="46.98196" lon="-1.30517">
        <ele>56</ele>
        <time>2022-05-28T08:39:12.762Z</time>
      </trkpt>
      <trkpt lat="46.98138" lon="-1.30372">
        <ele>58</ele>
        <time>2022-05-28T08:39:36.148Z</time>
      </trkpt>
      <trkpt lat="46.98058" lon="-1.30305">
        <ele>58</ele>
        <time>2022-05-28T08:39:51.913Z</time>
      </trkpt>
      <trkpt lat="46.97794" lon="-1.30232">
        <ele>47</ele>
        <time>2022-05-28T08:40:24.609Z</time>
      </trkpt>
      <trkpt lat="46.97658" lon="-1.30284">
        <ele>39</ele>
        <time>2022-05-28T08:40:39.946Z</time>
      </trkpt>
      <trkpt lat="46.9747" lon="-1.30432">
        <ele>39</ele>
        <time>2022-05-28T08:41:16.462Z</time>
      </trkpt>
      <trkpt lat="46.97177" lon="-1.30655">
        <ele>48</ele>
        <time>2022-05-28T08:42:31.435Z</time>
      </trkpt>
      <trkpt lat="46.97049" lon="-1.30745">
        <ele>49</ele>
        <time>2022-05-28T08:42:57.451Z</time>
      </trkpt>
      <trkpt lat="46.9689" lon="-1.30809">
        <ele>46</ele>
        <time>2022-05-28T08:43:21.420Z</time>
      </trkpt>
      <trkpt lat="46.9683" lon="-1.30818">
        <ele>47</ele>
        <time>2022-05-28T08:43:33.608Z</time>
      </trkpt>
      <trkpt lat="46.96615" lon="-1.30759">
        <ele>40</ele>
        <time>2022-05-28T08:44:02.061Z</time>
      </trkpt>
      <trkpt lat="46.96537" lon="-1.30741">
        <ele>38</ele>
        <time>2022-05-28T08:44:12.885Z</time>
      </trkpt>
      <trkpt lat="46.96503" lon="-1.30746">
        <ele>38</ele>
        <time>2022-05-28T08:44:18.732Z</time>
      </trkpt>
      <trkpt lat="46.96484" lon="-1.30765">
        <ele>37</ele>
        <time>2022-05-28T08:44:21.481Z</time>
      </trkpt>
      <trkpt lat="46.96468" lon="-1.30772">
        <ele>37</ele>
        <time>2022-05-28T08:44:24.338Z</time>
      </trkpt>
      <trkpt lat="46.9645" lon="-1.30765">
        <ele>37</ele>
        <time>2022-05-28T08:44:27.525Z</time>
      </trkpt>
      <trkpt lat="46.96443" lon="-1.30756">
        <ele>37</ele>
        <time>2022-05-28T08:44:29.118Z</time>
      </trkpt>
      <trkpt lat="46.96435" lon="-1.30733">
        <ele>38</ele>
        <time>2022-05-28T08:44:34.857Z</time>
      </trkpt>
      <trkpt lat="46.96407" lon="-1.30709">
        <ele>38</ele>
        <time>2022-05-28T08:44:40.407Z</time>
      </trkpt>
      <trkpt lat="46.96299" lon="-1.30684">
        <ele>41</ele>
        <time>2022-05-28T08:45:05.287Z</time>
      </trkpt>
      <trkpt lat="46.96173" lon="-1.30652">
        <ele>45</ele>
        <time>2022-05-28T08:45:35.689Z</time>
      </trkpt>
      <trkpt lat="46.96158" lon="-1.30646">
        <ele>46</ele>
        <time>2022-05-28T08:45:41.288Z</time>
      </trkpt>
      <trkpt lat="46.96158" lon="-1.30654">
        <ele>45</ele>
        <time>2022-05-28T08:45:41.849Z</time>
      </trkpt>
      <trkpt lat="46.96153" lon="-1.3066">
        <ele>45</ele>
        <time>2022-05-28T08:45:42.955Z</time>
      </trkpt>
      <trkpt lat="46.96148" lon="-1.30662">
        <ele>46</ele>
        <time>2022-05-28T08:45:46.755Z</time>
      </trkpt>
      <trkpt lat="46.96144" lon="-1.3066">
        <ele>46</ele>
        <time>2022-05-28T08:45:47.479Z</time>
      </trkpt>
      <trkpt lat="46.96136" lon="-1.30648">
        <ele>46</ele>
        <time>2022-05-28T08:45:49.438Z</time>
      </trkpt>
      <trkpt lat="46.96058" lon="-1.30626">
        <ele>47</ele>
        <time>2022-05-28T08:46:04.834Z</time>
      </trkpt>
      <trkpt lat="46.9587" lon="-1.30581">
        <ele>48</ele>
        <time>2022-05-28T08:46:39.127Z</time>
      </trkpt>
      <trkpt lat="46.95837" lon="-1.30575">
        <ele>48</ele>
        <time>2022-05-28T08:46:44.817Z</time>
      </trkpt>
      <trkpt lat="46.95801" lon="-1.30574">
        <ele>48</ele>
        <time>2022-05-28T08:46:50.978Z</time>
      </trkpt>
      <trkpt lat="46.95799" lon="-1.30584">
        <ele>48</ele>
        <time>2022-05-28T08:46:52.195Z</time>
      </trkpt>
      <trkpt lat="46.95794" lon="-1.30591">
        <ele>48</ele>
        <time>2022-05-28T08:46:53.378Z</time>
      </trkpt>
      <trkpt lat="46.95787" lon="-1.30594">
        <ele>48</ele>
        <time>2022-05-28T08:46:54.626Z</time>
      </trkpt>
      <trkpt lat="46.9578" lon="-1.30591">
        <ele>48</ele>
        <time>2022-05-28T08:46:55.874Z</time>
      </trkpt>
      <trkpt lat="46.95773" lon="-1.30574">
        <ele>48</ele>
        <time>2022-05-28T08:46:58.193Z</time>
      </trkpt>
      <trkpt lat="46.95757" lon="-1.30564">
        <ele>49</ele>
        <time>2022-05-28T08:47:03.913Z</time>
      </trkpt>
      <trkpt lat="46.95702" lon="-1.30545">
        <ele>49</ele>
        <time>2022-05-28T08:47:13.582Z</time>
      </trkpt>
      <trkpt lat="46.95643" lon="-1.30532">
        <ele>48</ele>
        <time>2022-05-28T08:47:22.361Z</time>
      </trkpt>
      <trkpt lat="46.95637" lon="-1.3053">
        <ele>48</ele>
        <time>2022-05-28T08:47:23.414Z</time>
      </trkpt>
      <trkpt lat="46.95629" lon="-1.30522">
        <ele>48</ele>
        <time>2022-05-28T08:47:25.072Z</time>
      </trkpt>
      <trkpt lat="46.95321" lon="-1.30446">
        <ele>45</ele>
        <time>2022-05-28T08:48:13.988Z</time>
      </trkpt>
      <trkpt lat="46.9525" lon="-1.30425">
        <ele>41</ele>
        <time>2022-05-28T08:48:21.980Z</time>
      </trkpt>
      <trkpt lat="46.95222" lon="-1.30413">
        <ele>39</ele>
        <time>2022-05-28T08:48:24.975Z</time>
      </trkpt>
      <trkpt lat="46.95187" lon="-1.30394">
        <ele>37</ele>
        <time>2022-05-28T08:48:29.138Z</time>
      </trkpt>
      <trkpt lat="46.95163" lon="-1.30378">
        <ele>36</ele>
        <time>2022-05-28T08:48:32.418Z</time>
      </trkpt>
      <trkpt lat="46.9512" lon="-1.30343">
        <ele>35</ele>
        <time>2022-05-28T08:48:39.442Z</time>
      </trkpt>
      <trkpt lat="46.95055" lon="-1.30278">
        <ele>35</ele>
        <time>2022-05-28T08:48:52.909Z</time>
      </trkpt>
      <trkpt lat="46.95051" lon="-1.30284">
        <ele>35</ele>
        <time>2022-05-28T08:48:53.888Z</time>
      </trkpt>
      <trkpt lat="46.95046" lon="-1.30285">
        <ele>35</ele>
        <time>2022-05-28T08:48:54.752Z</time>
      </trkpt>
      <trkpt lat="46.9504" lon="-1.30284">
        <ele>35</ele>
        <time>2022-05-28T08:48:55.785Z</time>
      </trkpt>
      <trkpt lat="46.95036" lon="-1.30278">
        <ele>35</ele>
        <time>2022-05-28T08:48:56.765Z</time>
      </trkpt>
      <trkpt lat="46.95034" lon="-1.30266">
        <ele>35</ele>
        <time>2022-05-28T08:48:58.207Z</time>
      </trkpt>
      <trkpt lat="46.95036" lon="-1.30259">
        <ele>35</ele>
        <time>2022-05-28T08:48:59.094Z</time>
      </trkpt>
      <trkpt lat="46.9504" lon="-1.30255">
        <ele>35</ele>
        <time>2022-05-28T08:48:59.922Z</time>
      </trkpt>
      <trkpt lat="46.94937" lon="-1.30059">
        <ele>39</ele>
        <time>2022-05-28T08:49:36.768Z</time>
      </trkpt>
      <trkpt lat="46.94882" lon="-1.29949">
        <ele>42</ele>
        <time>2022-05-28T08:49:59.143Z</time>
      </trkpt>
      <trkpt lat="46.94865" lon="-1.29905">
        <ele>42</ele>
        <time>2022-05-28T08:50:05.048Z</time>
      </trkpt>
      <trkpt lat="46.94861" lon="-1.29905">
        <ele>42</ele>
        <time>2022-05-28T08:50:05.733Z</time>
      </trkpt>
      <trkpt lat="46.94858" lon="-1.29902">
        <ele>42</ele>
        <time>2022-05-28T08:50:06.354Z</time>
      </trkpt>
      <trkpt lat="46.94858" lon="-1.29889">
        <ele>42</ele>
        <time>2022-05-28T08:50:07.873Z</time>
      </trkpt>
      <trkpt lat="46.94845" lon="-1.29872">
        <ele>43</ele>
        <time>2022-05-28T08:50:13.596Z</time>
      </trkpt>
      <trkpt lat="46.94834" lon="-1.29849">
        <ele>44</ele>
        <time>2022-05-28T08:50:19.479Z</time>
      </trkpt>
      <trkpt lat="46.94823" lon="-1.29821">
        <ele>44</ele>
        <time>2022-05-28T08:50:23.252Z</time>
      </trkpt>
      <trkpt lat="46.94802" lon="-1.2974">
        <ele>47</ele>
        <time>2022-05-28T08:50:41.070Z</time>
      </trkpt>
      <trkpt lat="46.94781" lon="-1.29672">
        <ele>51</ele>
        <time>2022-05-28T08:51:03.317Z</time>
      </trkpt>
      <trkpt lat="46.9471" lon="-1.29478">
        <ele>51</ele>
        <time>2022-05-28T08:51:29.029Z</time>
      </trkpt>
      <trkpt lat="46.94657" lon="-1.29377">
        <ele>50</ele>
        <time>2022-05-28T08:51:42.422Z</time>
      </trkpt>
      <trkpt lat="46.94616" lon="-1.29289">
        <ele>52</ele>
        <time>2022-05-28T08:51:58.983Z</time>
      </trkpt>
      <trkpt lat="46.94599" lon="-1.29318">
        <ele>49</ele>
        <time>2022-05-28T08:52:01.662Z</time>
      </trkpt>
      <trkpt lat="46.94605" lon="-1.29328">
        <ele>48</ele>
        <time>2022-05-28T08:52:02.596Z</time>
      </trkpt>
      <trkpt lat="46.94599" lon="-1.29318">
        <ele>49</ele>
        <time>2022-05-28T08:52:08.452Z</time>
      </trkpt>
      <trkpt lat="46.94616" lon="-1.29289">
        <ele>52</ele>
        <time>2022-05-28T08:52:26.029Z</time>
      </trkpt>
      <trkpt lat="46.94579" lon="-1.29205">
        <ele>55</ele>
        <time>2022-05-28T08:52:44.911Z</time>
      </trkpt>
      <trkpt lat="46.94563" lon="-1.29176">
        <ele>56</ele>
        <time>2022-05-28T08:52:51.564Z</time>
      </trkpt>
      <trkpt lat="46.94586" lon="-1.29152">
        <ele>56</ele>
        <time>2022-05-28T08:52:56.395Z</time>
      </trkpt>
      <trkpt lat="46.94618" lon="-1.29066">
        <ele>56</ele>
        <time>2022-05-28T08:53:07.837Z</time>
      </trkpt>
      <trkpt lat="46.94575" lon="-1.28939">
        <ele>57</ele>
        <time>2022-05-28T08:53:26.167Z</time>
      </trkpt>
      <trkpt lat="46.94565" lon="-1.28833">
        <ele>56</ele>
        <time>2022-05-28T08:53:37.204Z</time>
      </trkpt>
      <trkpt lat="46.94569" lon="-1.28787">
        <ele>56</ele>
        <time>2022-05-28T08:53:42.621Z</time>
      </trkpt>
      <trkpt lat="46.94567" lon="-1.2866">
        <ele>57</ele>
        <time>2022-05-28T08:53:59.250Z</time>
      </trkpt>
      <trkpt lat="46.94566" lon="-1.28635">
        <ele>57</ele>
        <time>2022-05-28T08:54:02.175Z</time>
      </trkpt>
      <trkpt lat="46.94563" lon="-1.28621">
        <ele>57</ele>
        <time>2022-05-28T08:54:03.889Z</time>
      </trkpt>
      <trkpt lat="46.9455" lon="-1.28595">
        <ele>57</ele>
        <time>2022-05-28T08:54:07.654Z</time>
      </trkpt>
      <trkpt lat="46.94485" lon="-1.28485">
        <ele>57</ele>
        <time>2022-05-28T08:54:24.648Z</time>
      </trkpt>
      <trkpt lat="46.94307" lon="-1.28204">
        <ele>59</ele>
        <time>2022-05-28T08:55:12.891Z</time>
      </trkpt>
      <trkpt lat="46.94297" lon="-1.28184">
        <ele>59</ele>
        <time>2022-05-28T08:55:15.787Z</time>
      </trkpt>
      <trkpt lat="46.94174" lon="-1.27679">
        <ele>55</ele>
        <time>2022-05-28T08:56:12.448Z</time>
      </trkpt>
      <trkpt lat="46.94157" lon="-1.27685">
        <ele>57</ele>
        <time>2022-05-28T08:56:24.169Z</time>
      </trkpt>
      <trkpt lat="46.94019" lon="-1.27769">
        <ele>61</ele>
        <time>2022-05-28T08:56:57.917Z</time>
      </trkpt>
      <trkpt lat="46.9401" lon="-1.27767">
        <ele>61</ele>
        <time>2022-05-28T08:56:59.474Z</time>
      </trkpt>
      <trkpt lat="46.93981" lon="-1.27708">
        <ele>60</ele>
        <time>2022-05-28T08:57:06.573Z</time>
      </trkpt>
      <trkpt lat="46.93955" lon="-1.27643">
        <ele>61</ele>
        <time>2022-05-28T08:57:17.289Z</time>
      </trkpt>
      <trkpt lat="46.93872" lon="-1.27386">
        <ele>61</ele>
        <time>2022-05-28T08:57:50.503Z</time>
      </trkpt>
      <trkpt lat="46.93841" lon="-1.27257">
        <ele>62</ele>
        <time>2022-05-28T08:58:08.257Z</time>
      </trkpt>
      <trkpt lat="46.93795" lon="-1.27096">
        <ele>63</ele>
        <time>2022-05-28T08:58:30.390Z</time>
      </trkpt>
      <trkpt lat="46.93772" lon="-1.27006">
        <ele>64</ele>
        <time>2022-05-28T08:58:43.464Z</time>
      </trkpt>
      <trkpt lat="46.93678" lon="-1.26725">
        <ele>64</ele>
        <time>2022-05-28T08:59:20.022Z</time>
      </trkpt>
      <trkpt lat="46.93614" lon="-1.26542">
        <ele>64</ele>
        <time>2022-05-28T08:59:44.044Z</time>
      </trkpt>
      <trkpt lat="46.93607" lon="-1.26509">
        <ele>64</ele>
        <time>2022-05-28T08:59:48.081Z</time>
      </trkpt>
      <trkpt lat="46.93593" lon="-1.26398">
        <ele>66</ele>
        <time>2022-05-28T09:00:05.328Z</time>
      </trkpt>
      <trkpt lat="46.93576" lon="-1.26195">
        <ele>64</ele>
        <time>2022-05-28T09:00:26.311Z</time>
      </trkpt>
      <trkpt lat="46.93577" lon="-1.26175">
        <ele>63</ele>
        <time>2022-05-28T09:00:27.717Z</time>
      </trkpt>
      <trkpt lat="46.9358" lon="-1.26165">
        <ele>63</ele>
        <time>2022-05-28T09:00:28.993Z</time>
      </trkpt>
      <trkpt lat="46.93569" lon="-1.26171">
        <ele>64</ele>
        <time>2022-05-28T09:00:34.604Z</time>
      </trkpt>
      <trkpt lat="46.93545" lon="-1.26061">
        <ele>66</ele>
        <time>2022-05-28T09:00:52.133Z</time>
      </trkpt>
      <trkpt lat="46.9353" lon="-1.26015">
        <ele>67</ele>
        <time>2022-05-28T09:01:00.170Z</time>
      </trkpt>
      <trkpt lat="46.93511" lon="-1.25929">
        <ele>67</ele>
        <time>2022-05-28T09:01:10.731Z</time>
      </trkpt>
      <trkpt lat="46.93432" lon="-1.25765">
        <ele>65</ele>
        <time>2022-05-28T09:01:31.274Z</time>
      </trkpt>
      <trkpt lat="46.93299" lon="-1.25437">
        <ele>64</ele>
        <time>2022-05-28T09:02:14.268Z</time>
      </trkpt>
      <trkpt lat="46.93295" lon="-1.25437">
        <ele>64</ele>
        <time>2022-05-28T09:02:14.952Z</time>
      </trkpt>
      <trkpt lat="46.93284" lon="-1.25424">
        <ele>65</ele>
        <time>2022-05-28T09:02:20.504Z</time>
      </trkpt>
      <trkpt lat="46.93273" lon="-1.25401">
        <ele>64</ele>
        <time>2022-05-28T09:02:22.663Z</time>
      </trkpt>
      <trkpt lat="46.93241" lon="-1.25275">
        <ele>65</ele>
        <time>2022-05-28T09:02:40.150Z</time>
      </trkpt>
      <trkpt lat="46.93206" lon="-1.25182">
        <ele>65</ele>
        <time>2022-05-28T09:02:52.558Z</time>
      </trkpt>
      <trkpt lat="46.93162" lon="-1.25087">
        <ele>64</ele>
        <time>2022-05-28T09:03:04.497Z</time>
      </trkpt>
      <trkpt lat="46.93113" lon="-1.2496">
        <ele>66</ele>
        <time>2022-05-28T09:03:25.393Z</time>
      </trkpt>
      <trkpt lat="46.93072" lon="-1.24845">
        <ele>65</ele>
        <time>2022-05-28T09:03:39.061Z</time>
      </trkpt>
      <trkpt lat="46.93043" lon="-1.24743">
        <ele>65</ele>
        <time>2022-05-28T09:03:51.972Z</time>
      </trkpt>
      <trkpt lat="46.93042" lon="-1.24746">
        <ele>65</ele>
        <time>2022-05-28T09:03:52.362Z</time>
      </trkpt>
      <trkpt lat="46.93028" lon="-1.2465">
        <ele>65</ele>
        <time>2022-05-28T09:04:03.832Z</time>
      </trkpt>
      <trkpt lat="46.93014" lon="-1.24488">
        <ele>63</ele>
        <time>2022-05-28T09:04:20.077Z</time>
      </trkpt>
      <trkpt lat="46.93003" lon="-1.24436">
        <ele>61</ele>
        <time>2022-05-28T09:04:24.217Z</time>
      </trkpt>
      <trkpt lat="46.9295" lon="-1.24268">
        <ele>54</ele>
        <time>2022-05-28T09:04:38.145Z</time>
      </trkpt>
      <trkpt lat="46.9294" lon="-1.24247">
        <ele>53</ele>
        <time>2022-05-28T09:04:40.050Z</time>
      </trkpt>
      <trkpt lat="46.92925" lon="-1.24242">
        <ele>53</ele>
        <time>2022-05-28T09:04:42.682Z</time>
      </trkpt>
      <trkpt lat="46.92886" lon="-1.24239">
        <ele>54</ele>
        <time>2022-05-28T09:04:51.387Z</time>
      </trkpt>
      <trkpt lat="46.9287" lon="-1.24234">
        <ele>55</ele>
        <time>2022-05-28T09:04:57.033Z</time>
      </trkpt>
      <trkpt lat="46.92817" lon="-1.24206">
        <ele>57</ele>
        <time>2022-05-28T09:05:11.105Z</time>
      </trkpt>
      <trkpt lat="46.92817" lon="-1.24197">
        <ele>57</ele>
        <time>2022-05-28T09:05:12.157Z</time>
      </trkpt>
      <trkpt lat="46.92806" lon="-1.24167">
        <ele>58</ele>
        <time>2022-05-28T09:05:18.515Z</time>
      </trkpt>
      <trkpt lat="46.92803" lon="-1.24152">
        <ele>59</ele>
        <time>2022-05-28T09:05:24.219Z</time>
      </trkpt>
      <trkpt lat="46.92806" lon="-1.23999">
        <ele>62</ele>
        <time>2022-05-28T09:05:48.347Z</time>
      </trkpt>
      <trkpt lat="46.92808" lon="-1.23988">
        <ele>63</ele>
        <time>2022-05-28T09:05:54.002Z</time>
      </trkpt>
      <trkpt lat="46.92811" lon="-1.23977">
        <ele>63</ele>
        <time>2022-05-28T09:05:55.387Z</time>
      </trkpt>
      <trkpt lat="46.92818" lon="-1.23965">
        <ele>63</ele>
        <time>2022-05-28T09:05:57.231Z</time>
      </trkpt>
      <trkpt lat="46.92846" lon="-1.23933">
        <ele>64</ele>
        <time>2022-05-28T09:06:05.378Z</time>
      </trkpt>
      <trkpt lat="46.92853" lon="-1.23907">
        <ele>64</ele>
        <time>2022-05-28T09:06:08.644Z</time>
      </trkpt>
      <trkpt lat="46.92852" lon="-1.23888">
        <ele>64</ele>
        <time>2022-05-28T09:06:10.871Z</time>
      </trkpt>
      <trkpt lat="46.92832" lon="-1.23841">
        <ele>63</ele>
        <time>2022-05-28T09:06:16.009Z</time>
      </trkpt>
      <trkpt lat="46.92829" lon="-1.23817">
        <ele>63</ele>
        <time>2022-05-28T09:06:18.860Z</time>
      </trkpt>
      <trkpt lat="46.92834" lon="-1.23795">
        <ele>63</ele>
        <time>2022-05-28T09:06:21.569Z</time>
      </trkpt>
      <trkpt lat="46.92855" lon="-1.23746">
        <ele>64</ele>
        <time>2022-05-28T09:06:30.347Z</time>
      </trkpt>
      <trkpt lat="46.92861" lon="-1.23715">
        <ele>64</ele>
        <time>2022-05-28T09:06:34.112Z</time>
      </trkpt>
      <trkpt lat="46.92864" lon="-1.23619">
        <ele>67</ele>
        <time>2022-05-28T09:06:52.670Z</time>
      </trkpt>
      <trkpt lat="46.92863" lon="-1.23505">
        <ele>71</ele>
        <time>2022-05-28T09:07:16.322Z</time>
      </trkpt>
      <trkpt lat="46.92877" lon="-1.23469">
        <ele>71</ele>
        <time>2022-05-28T09:07:21.163Z</time>
      </trkpt>
      <trkpt lat="46.92909" lon="-1.23416">
        <ele>72</ele>
        <time>2022-05-28T09:07:31.366Z</time>
      </trkpt>
      <trkpt lat="46.92923" lon="-1.23381">
        <ele>70</ele>
        <time>2022-05-28T09:07:34.210Z</time>
      </trkpt>
      <trkpt lat="46.92935" lon="-1.23282">
        <ele>65</ele>
        <time>2022-05-28T09:07:41.259Z</time>
      </trkpt>
      <trkpt lat="46.92933" lon="-1.2322">
        <ele>62</ele>
        <time>2022-05-28T09:07:45.611Z</time>
      </trkpt>
      <trkpt lat="46.92918" lon="-1.23151">
        <ele>60</ele>
        <time>2022-05-28T09:07:51.651Z</time>
      </trkpt>
      <trkpt lat="46.92891" lon="-1.23091">
        <ele>58</ele>
        <time>2022-05-28T09:07:57.631Z</time>
      </trkpt>
      <trkpt lat="46.92883" lon="-1.23065">
        <ele>56</ele>
        <time>2022-05-28T09:07:59.630Z</time>
      </trkpt>
      <trkpt lat="46.92857" lon="-1.2291">
        <ele>46</ele>
        <time>2022-05-28T09:08:10.820Z</time>
      </trkpt>
      <trkpt lat="46.92829" lon="-1.22824">
        <ele>43</ele>
        <time>2022-05-28T09:08:18.454Z</time>
      </trkpt>
      <trkpt lat="46.92818" lon="-1.22809">
        <ele>42</ele>
        <time>2022-05-28T09:08:19.999Z</time>
      </trkpt>
      <trkpt lat="46.92806" lon="-1.22799">
        <ele>42</ele>
        <time>2022-05-28T09:08:22.361Z</time>
      </trkpt>
      <trkpt lat="46.92779" lon="-1.22789">
        <ele>42</ele>
        <time>2022-05-28T09:08:27.127Z</time>
      </trkpt>
      <trkpt lat="46.92718" lon="-1.22797">
        <ele>43</ele>
        <time>2022-05-28T09:08:39.470Z</time>
      </trkpt>
      <trkpt lat="46.9271" lon="-1.22744">
        <ele>43</ele>
        <time>2022-05-28T09:08:45.813Z</time>
      </trkpt>
      <trkpt lat="46.92706" lon="-1.22734">
        <ele>43</ele>
        <time>2022-05-28T09:08:47.167Z</time>
      </trkpt>
      <trkpt lat="46.9268" lon="-1.227">
        <ele>44</ele>
        <time>2022-05-28T09:08:55.212Z</time>
      </trkpt>
      <trkpt lat="46.92676" lon="-1.22684">
        <ele>44</ele>
        <time>2022-05-28T09:08:57.203Z</time>
      </trkpt>
      <trkpt lat="46.92677" lon="-1.22675">
        <ele>44</ele>
        <time>2022-05-28T09:08:58.269Z</time>
      </trkpt>
      <trkpt lat="46.92692" lon="-1.22635">
        <ele>46</ele>
        <time>2022-05-28T09:09:09.470Z</time>
      </trkpt>
      <trkpt lat="46.92704" lon="-1.2261">
        <ele>48</ele>
        <time>2022-05-28T09:09:20.929Z</time>
      </trkpt>
      <trkpt lat="46.92714" lon="-1.22595">
        <ele>49</ele>
        <time>2022-05-28T09:09:26.484Z</time>
      </trkpt>
      <trkpt lat="46.92726" lon="-1.22593">
        <ele>50</ele>
        <time>2022-05-28T09:09:32.074Z</time>
      </trkpt>
      <trkpt lat="46.92779" lon="-1.22615">
        <ele>50</ele>
        <time>2022-05-28T09:09:41.500Z</time>
      </trkpt>
      <trkpt lat="46.9279" lon="-1.22618">
        <ele>50</ele>
        <time>2022-05-28T09:09:43.415Z</time>
      </trkpt>
      <trkpt lat="46.92802" lon="-1.22618">
        <ele>50</ele>
        <time>2022-05-28T09:09:45.468Z</time>
      </trkpt>
      <trkpt lat="46.92826" lon="-1.22611">
        <ele>50</ele>
        <time>2022-05-28T09:09:49.655Z</time>
      </trkpt>
      <trkpt lat="46.92869" lon="-1.22593">
        <ele>53</ele>
        <time>2022-05-28T09:10:06.370Z</time>
      </trkpt>
      <trkpt lat="46.92882" lon="-1.22586">
        <ele>54</ele>
        <time>2022-05-28T09:10:11.920Z</time>
      </trkpt>
      <trkpt lat="46.92899" lon="-1.22571">
        <ele>56</ele>
        <time>2022-05-28T09:10:23.491Z</time>
      </trkpt>
      <trkpt lat="46.92912" lon="-1.22553">
        <ele>57</ele>
        <time>2022-05-28T09:10:29.253Z</time>
      </trkpt>
      <trkpt lat="46.92918" lon="-1.22539">
        <ele>57</ele>
        <time>2022-05-28T09:10:31.185Z</time>
      </trkpt>
      <trkpt lat="46.92935" lon="-1.22483">
        <ele>58</ele>
        <time>2022-05-28T09:10:40.338Z</time>
      </trkpt>
      <trkpt lat="46.92954" lon="-1.22404">
        <ele>60</ele>
        <time>2022-05-28T09:10:54.534Z</time>
      </trkpt>
      <trkpt lat="46.92982" lon="-1.22314">
        <ele>63</ele>
        <time>2022-05-28T09:11:13.328Z</time>
      </trkpt>
      <trkpt lat="46.93" lon="-1.22276">
        <ele>63</ele>
        <time>2022-05-28T09:11:18.732Z</time>
      </trkpt>
      <trkpt lat="46.93099" lon="-1.221">
        <ele>62</ele>
        <time>2022-05-28T09:11:43.829Z</time>
      </trkpt>
      <trkpt lat="46.93111" lon="-1.22083">
        <ele>62</ele>
        <time>2022-05-28T09:11:46.686Z</time>
      </trkpt>
      <trkpt lat="46.93138" lon="-1.22056">
        <ele>62</ele>
        <time>2022-05-28T09:11:52.280Z</time>
      </trkpt>
      <trkpt lat="46.93174" lon="-1.22034">
        <ele>62</ele>
        <time>2022-05-28T09:11:58.955Z</time>
      </trkpt>
      <trkpt lat="46.93248" lon="-1.21997">
        <ele>65</ele>
        <time>2022-05-28T09:12:19.164Z</time>
      </trkpt>
      <trkpt lat="46.93292" lon="-1.21969">
        <ele>64</ele>
        <time>2022-05-28T09:12:25.985Z</time>
      </trkpt>
      <trkpt lat="46.93325" lon="-1.21941">
        <ele>63</ele>
        <time>2022-05-28T09:12:31.176Z</time>
      </trkpt>
      <trkpt lat="46.93338" lon="-1.21926">
        <ele>62</ele>
        <time>2022-05-28T09:12:32.942Z</time>
      </trkpt>
      <trkpt lat="46.93362" lon="-1.2189">
        <ele>63</ele>
        <time>2022-05-28T09:12:40.909Z</time>
      </trkpt>
      <trkpt lat="46.93393" lon="-1.21821">
        <ele>66</ele>
        <time>2022-05-28T09:12:58.448Z</time>
      </trkpt>
      <trkpt lat="46.9342" lon="-1.2178">
        <ele>67</ele>
        <time>2022-05-28T09:13:07.128Z</time>
      </trkpt>
      <trkpt lat="46.93505" lon="-1.21667">
        <ele>69</ele>
        <time>2022-05-28T09:13:30.534Z</time>
      </trkpt>
      <trkpt lat="46.93554" lon="-1.21594">
        <ele>71</ele>
        <time>2022-05-28T09:13:46.652Z</time>
      </trkpt>
      <trkpt lat="46.93584" lon="-1.21562">
        <ele>72</ele>
        <time>2022-05-28T09:13:55.050Z</time>
      </trkpt>
      <trkpt lat="46.93663" lon="-1.21505">
        <ele>73</ele>
        <time>2022-05-28T09:14:11.905Z</time>
      </trkpt>
      <trkpt lat="46.93659" lon="-1.21494">
        <ele>73</ele>
        <time>2022-05-28T09:14:13.361Z</time>
      </trkpt>
      <trkpt lat="46.93582" lon="-1.21028">
        <ele>60</ele>
        <time>2022-05-28T09:14:53.561Z</time>
      </trkpt>
      <trkpt lat="46.93565" lon="-1.2097">
        <ele>59</ele>
        <time>2022-05-28T09:14:59.571Z</time>
      </trkpt>
      <trkpt lat="46.93545" lon="-1.20916">
        <ele>58</ele>
        <time>2022-05-28T09:15:05.390Z</time>
      </trkpt>
      <trkpt lat="46.93534" lon="-1.209">
        <ele>58</ele>
        <time>2022-05-28T09:15:08.043Z</time>
      </trkpt>
      <trkpt lat="46.93435" lon="-1.208">
        <ele>63</ele>
        <time>2022-05-28T09:15:40.358Z</time>
      </trkpt>
      <trkpt lat="46.93391" lon="-1.20762">
        <ele>66</ele>
        <time>2022-05-28T09:15:57.434Z</time>
      </trkpt>
      <trkpt lat="46.93307" lon="-1.20699">
        <ele>71</ele>
        <time>2022-05-28T09:16:26.701Z</time>
      </trkpt>
      <trkpt lat="46.93291" lon="-1.20682">
        <ele>71</ele>
        <time>2022-05-28T09:16:30.083Z</time>
      </trkpt>
      <trkpt lat="46.93241" lon="-1.20576">
        <ele>74</ele>
        <time>2022-05-28T09:16:51.697Z</time>
      </trkpt>
      <trkpt lat="46.93224" lon="-1.2053">
        <ele>76</ele>
        <time>2022-05-28T09:17:03.216Z</time>
      </trkpt>
      <trkpt lat="46.93185" lon="-1.20407">
        <ele>80</ele>
        <time>2022-05-28T09:17:28.598Z</time>
      </trkpt>
      <trkpt lat="46.93138" lon="-1.20282">
        <ele>80</ele>
        <time>2022-05-28T09:17:45.271Z</time>
      </trkpt>
      <trkpt lat="46.93124" lon="-1.20237">
        <ele>81</ele>
        <time>2022-05-28T09:17:53.147Z</time>
      </trkpt>
      <trkpt lat="46.93104" lon="-1.20157">
        <ele>81</ele>
        <time>2022-05-28T09:18:03.101Z</time>
      </trkpt>
      <trkpt lat="46.9309" lon="-1.20117">
        <ele>82</ele>
        <time>2022-05-28T09:18:10.510Z</time>
      </trkpt>
      <trkpt lat="46.93021" lon="-1.19968">
        <ele>81</ele>
        <time>2022-05-28T09:18:30.019Z</time>
      </trkpt>
      <trkpt lat="46.92998" lon="-1.19929">
        <ele>81</ele>
        <time>2022-05-28T09:18:36.041Z</time>
      </trkpt>
      <trkpt lat="46.92863" lon="-1.19735">
        <ele>82</ele>
        <time>2022-05-28T09:19:10.104Z</time>
      </trkpt>
      <trkpt lat="46.92806" lon="-1.19628">
        <ele>81</ele>
        <time>2022-05-28T09:19:24.466Z</time>
      </trkpt>
      <trkpt lat="46.92792" lon="-1.19582">
        <ele>81</ele>
        <time>2022-05-28T09:19:30.350Z</time>
      </trkpt>
      <trkpt lat="46.92782" lon="-1.19497">
        <ele>80</ele>
        <time>2022-05-28T09:19:39.002Z</time>
      </trkpt>
      <trkpt lat="46.92777" lon="-1.19473">
        <ele>80</ele>
        <time>2022-05-28T09:19:41.934Z</time>
      </trkpt>
      <trkpt lat="46.9271" lon="-1.19289">
        <ele>78</ele>
        <time>2022-05-28T09:20:03.382Z</time>
      </trkpt>
      <trkpt lat="46.92706" lon="-1.19264">
        <ele>78</ele>
        <time>2022-05-28T09:20:06.382Z</time>
      </trkpt>
      <trkpt lat="46.92705" lon="-1.19244">
        <ele>77</ele>
        <time>2022-05-28T09:20:07.788Z</time>
      </trkpt>
      <trkpt lat="46.92721" lon="-1.19108">
        <ele>77</ele>
        <time>2022-05-28T09:20:23.915Z</time>
      </trkpt>
      <trkpt lat="46.9272" lon="-1.19078">
        <ele>77</ele>
        <time>2022-05-28T09:20:27.425Z</time>
      </trkpt>
      <trkpt lat="46.92622" lon="-1.18747">
        <ele>73</ele>
        <time>2022-05-28T09:21:03.841Z</time>
      </trkpt>
      <trkpt lat="46.92599" lon="-1.18676">
        <ele>75</ele>
        <time>2022-05-28T09:21:17.529Z</time>
      </trkpt>
      <trkpt lat="46.92556" lon="-1.18515">
        <ele>76</ele>
        <time>2022-05-28T09:21:39.475Z</time>
      </trkpt>
      <trkpt lat="46.92525" lon="-1.18376">
        <ele>78</ele>
        <time>2022-05-28T09:22:00.412Z</time>
      </trkpt>
      <trkpt lat="46.92523" lon="-1.18344">
        <ele>79</ele>
        <time>2022-05-28T09:22:06.607Z</time>
      </trkpt>
      <trkpt lat="46.92539" lon="-1.18243">
        <ele>79</ele>
        <time>2022-05-28T09:22:18.723Z</time>
      </trkpt>
      <trkpt lat="46.92539" lon="-1.18228">
        <ele>79</ele>
        <time>2022-05-28T09:22:20.476Z</time>
      </trkpt>
      <trkpt lat="46.92535" lon="-1.18209">
        <ele>80</ele>
        <time>2022-05-28T09:22:26.024Z</time>
      </trkpt>
      <trkpt lat="46.92523" lon="-1.18174">
        <ele>80</ele>
        <time>2022-05-28T09:22:30.601Z</time>
      </trkpt>
      <trkpt lat="46.92489" lon="-1.18092">
        <ele>81</ele>
        <time>2022-05-28T09:22:43.658Z</time>
      </trkpt>
      <trkpt lat="46.92462" lon="-1.17998">
        <ele>83</ele>
        <time>2022-05-28T09:22:59.736Z</time>
      </trkpt>
      <trkpt lat="46.92403" lon="-1.17868">
        <ele>85</ele>
        <time>2022-05-28T09:23:21.784Z</time>
      </trkpt>
      <trkpt lat="46.92382" lon="-1.17807">
        <ele>86</ele>
        <time>2022-05-28T09:23:31.716Z</time>
      </trkpt>
      <trkpt lat="46.92375" lon="-1.17773">
        <ele>87</ele>
        <time>2022-05-28T09:23:38.206Z</time>
      </trkpt>
      <trkpt lat="46.9235" lon="-1.17559">
        <ele>88</ele>
        <time>2022-05-28T09:24:05.296Z</time>
      </trkpt>
      <trkpt lat="46.92337" lon="-1.17469">
        <ele>86</ele>
        <time>2022-05-28T09:24:13.479Z</time>
      </trkpt>
      <trkpt lat="46.92296" lon="-1.17228">
        <ele>87</ele>
        <time>2022-05-28T09:24:44.211Z</time>
      </trkpt>
      <trkpt lat="46.92215" lon="-1.16922">
        <ele>86</ele>
        <time>2022-05-28T09:25:20.993Z</time>
      </trkpt>
      <trkpt lat="46.92161" lon="-1.16749">
        <ele>85</ele>
        <time>2022-05-28T09:25:41.691Z</time>
      </trkpt>
      <trkpt lat="46.92141" lon="-1.16693">
        <ele>84</ele>
        <time>2022-05-28T09:25:47.712Z</time>
      </trkpt>
      <trkpt lat="46.92106" lon="-1.16609">
        <ele>82</ele>
        <time>2022-05-28T09:25:56.607Z</time>
      </trkpt>
      <trkpt lat="46.9197" lon="-1.16317">
        <ele>78</ele>
        <time>2022-05-28T09:26:32.184Z</time>
      </trkpt>
      <trkpt lat="46.91968" lon="-1.163">
        <ele>78</ele>
        <time>2022-05-28T09:26:34.200Z</time>
      </trkpt>
      <trkpt lat="46.9198" lon="-1.16274">
        <ele>77</ele>
        <time>2022-05-28T09:26:36.705Z</time>
      </trkpt>
      <trkpt lat="46.9195" lon="-1.16242">
        <ele>78</ele>
        <time>2022-05-28T09:26:45.104Z</time>
      </trkpt>
      <trkpt lat="46.91909" lon="-1.16185">
        <ele>78</ele>
        <time>2022-05-28T09:26:54.778Z</time>
      </trkpt>
      <trkpt lat="46.91875" lon="-1.16124">
        <ele>80</ele>
        <time>2022-05-28T09:27:08.483Z</time>
      </trkpt>
      <trkpt lat="46.91845" lon="-1.16058">
        <ele>82</ele>
        <time>2022-05-28T09:27:22.240Z</time>
      </trkpt>
      <trkpt lat="46.9156" lon="-1.15262">
        <ele>86</ele>
        <time>2022-05-28T09:29:14.142Z</time>
      </trkpt>
      <trkpt lat="46.91539" lon="-1.15213">
        <ele>85</ele>
        <time>2022-05-28T09:29:19.560Z</time>
      </trkpt>
      <trkpt lat="46.9133" lon="-1.14836">
        <ele>89</ele>
        <time>2022-05-28T09:30:23.498Z</time>
      </trkpt>
      <trkpt lat="46.9112" lon="-1.14384">
        <ele>90</ele>
        <time>2022-05-28T09:31:29.055Z</time>
      </trkpt>
      <trkpt lat="46.91109" lon="-1.14373">
        <ele>90</ele>
        <time>2022-05-28T09:31:31.335Z</time>
      </trkpt>
      <trkpt lat="46.91099" lon="-1.14369">
        <ele>90</ele>
        <time>2022-05-28T09:31:33.108Z</time>
      </trkpt>
      <trkpt lat="46.9108" lon="-1.14371">
        <ele>91</ele>
        <time>2022-05-28T09:31:38.979Z</time>
      </trkpt>
      <trkpt lat="46.91074" lon="-1.14384">
        <ele>91</ele>
        <time>2022-05-28T09:31:40.813Z</time>
      </trkpt>
      <trkpt lat="46.91068" lon="-1.14388">
        <ele>91</ele>
        <time>2022-05-28T09:31:41.941Z</time>
      </trkpt>
      <trkpt lat="46.91061" lon="-1.14386">
        <ele>91</ele>
        <time>2022-05-28T09:31:43.161Z</time>
      </trkpt>
      <trkpt lat="46.91056" lon="-1.14378">
        <ele>91</ele>
        <time>2022-05-28T09:31:44.429Z</time>
      </trkpt>
      <trkpt lat="46.91055" lon="-1.14369">
        <ele>91</ele>
        <time>2022-05-28T09:31:45.495Z</time>
      </trkpt>
      <trkpt lat="46.91057" lon="-1.14361">
        <ele>91</ele>
        <time>2022-05-28T09:31:46.490Z</time>
      </trkpt>
      <trkpt lat="46.91065" lon="-1.14353">
        <ele>91</ele>
        <time>2022-05-28T09:31:48.148Z</time>
      </trkpt>
      <trkpt lat="46.9105" lon="-1.1425">
        <ele>90</ele>
        <time>2022-05-28T09:31:58.998Z</time>
      </trkpt>
      <trkpt lat="46.91029" lon="-1.1418">
        <ele>91</ele>
        <time>2022-05-28T09:32:09.845Z</time>
      </trkpt>
      <trkpt lat="46.90787" lon="-1.13449">
        <ele>88</ele>
        <time>2022-05-28T09:33:40.122Z</time>
      </trkpt>
      <trkpt lat="46.90775" lon="-1.13404">
        <ele>87</ele>
        <time>2022-05-28T09:33:44.472Z</time>
      </trkpt>
      <trkpt lat="46.90766" lon="-1.13357">
        <ele>87</ele>
        <time>2022-05-28T09:33:50.178Z</time>
      </trkpt>
      <trkpt lat="46.9075" lon="-1.13315">
        <ele>87</ele>
        <time>2022-05-28T09:33:55.799Z</time>
      </trkpt>
      <trkpt lat="46.9073" lon="-1.13274">
        <ele>86</ele>
        <time>2022-05-28T09:34:00.380Z</time>
      </trkpt>
      <trkpt lat="46.9064" lon="-1.13117">
        <ele>79</ele>
        <time>2022-05-28T09:34:16.374Z</time>
      </trkpt>
      <trkpt lat="46.90626" lon="-1.13084">
        <ele>78</ele>
        <time>2022-05-28T09:34:19.682Z</time>
      </trkpt>
      <trkpt lat="46.90615" lon="-1.13049">
        <ele>78</ele>
        <time>2022-05-28T09:34:24.186Z</time>
      </trkpt>
      <trkpt lat="46.90574" lon="-1.13084">
        <ele>77</ele>
        <time>2022-05-28T09:34:30.922Z</time>
      </trkpt>
      <trkpt lat="46.90514" lon="-1.13146">
        <ele>79</ele>
        <time>2022-05-28T09:34:47.595Z</time>
      </trkpt>
      <trkpt lat="46.9048" lon="-1.13177">
        <ele>80</ele>
        <time>2022-05-28T09:34:56.460Z</time>
      </trkpt>
      <trkpt lat="46.90429" lon="-1.13209">
        <ele>81</ele>
        <time>2022-05-28T09:35:07.846Z</time>
      </trkpt>
      <trkpt lat="46.90385" lon="-1.13224">
        <ele>82</ele>
        <time>2022-05-28T09:35:17.538Z</time>
      </trkpt>
      <trkpt lat="46.90352" lon="-1.13231">
        <ele>83</ele>
        <time>2022-05-28T09:35:25.349Z</time>
      </trkpt>
      <trkpt lat="46.90295" lon="-1.13234">
        <ele>85</ele>
        <time>2022-05-28T09:35:39.522Z</time>
      </trkpt>
      <trkpt lat="46.90263" lon="-1.13233">
        <ele>86</ele>
        <time>2022-05-28T09:35:47.128Z</time>
      </trkpt>
      <trkpt lat="46.90228" lon="-1.13236">
        <ele>87</ele>
        <time>2022-05-28T09:35:55.204Z</time>
      </trkpt>
      <trkpt lat="46.90209" lon="-1.1324">
        <ele>87</ele>
        <time>2022-05-28T09:35:58.489Z</time>
      </trkpt>
      <trkpt lat="46.90154" lon="-1.13255">
        <ele>87</ele>
        <time>2022-05-28T09:36:08.062Z</time>
      </trkpt>
      <trkpt lat="46.9012" lon="-1.13269">
        <ele>87</ele>
        <time>2022-05-28T09:36:14.105Z</time>
      </trkpt>
      <trkpt lat="46.90087" lon="-1.13286">
        <ele>87</ele>
        <time>2022-05-28T09:36:20.091Z</time>
      </trkpt>
      <trkpt lat="46.90058" lon="-1.13304">
        <ele>87</ele>
        <time>2022-05-28T09:36:25.481Z</time>
      </trkpt>
      <trkpt lat="46.90023" lon="-1.13331">
        <ele>87</ele>
        <time>2022-05-28T09:36:32.251Z</time>
      </trkpt>
      <trkpt lat="46.89839" lon="-1.13488">
        <ele>88</ele>
        <time>2022-05-28T09:37:10.385Z</time>
      </trkpt>
      <trkpt lat="46.89807" lon="-1.13512">
        <ele>88</ele>
        <time>2022-05-28T09:37:16.538Z</time>
      </trkpt>
      <trkpt lat="46.89776" lon="-1.13532">
        <ele>88</ele>
        <time>2022-05-28T09:37:22.335Z</time>
      </trkpt>
      <trkpt lat="46.89776" lon="-1.13532">
        <ele>88</ele>
        <time>2022-05-28T09:37:22.335Z</time>
      </trkpt>
      <trkpt lat="46.89723" lon="-1.13402">
        <ele>86</ele>
        <time>2022-05-28T09:37:37.228Z</time>
      </trkpt>
      <trkpt lat="46.89642" lon="-1.13214">
        <ele>77</ele>
        <time>2022-05-28T09:37:53.554Z</time>
      </trkpt>
      <trkpt lat="46.89643" lon="-1.13187">
        <ele>76</ele>
        <time>2022-05-28T09:37:55.607Z</time>
      </trkpt>
      <trkpt lat="46.89659" lon="-1.13088">
        <ele>74</ele>
        <time>2022-05-28T09:38:04.879Z</time>
      </trkpt>
      <trkpt lat="46.89658" lon="-1.13073">
        <ele>74</ele>
        <time>2022-05-28T09:38:06.642Z</time>
      </trkpt>
      <trkpt lat="46.89653" lon="-1.13058">
        <ele>74</ele>
        <time>2022-05-28T09:38:08.593Z</time>
      </trkpt>
      <trkpt lat="46.89594" lon="-1.12932">
        <ele>75</ele>
        <time>2022-05-28T09:38:28.212Z</time>
      </trkpt>
      <trkpt lat="46.89581" lon="-1.12915">
        <ele>75</ele>
        <time>2022-05-28T09:38:31.195Z</time>
      </trkpt>
      <trkpt lat="46.89555" lon="-1.12894">
        <ele>76</ele>
        <time>2022-05-28T09:38:38.455Z</time>
      </trkpt>
      <trkpt lat="46.89526" lon="-1.12864">
        <ele>77</ele>
        <time>2022-05-28T09:38:46.602Z</time>
      </trkpt>
      <trkpt lat="46.89444" lon="-1.12759">
        <ele>82</ele>
        <time>2022-05-28T09:39:17.482Z</time>
      </trkpt>
      <trkpt lat="46.89418" lon="-1.12735">
        <ele>84</ele>
        <time>2022-05-28T09:39:28.663Z</time>
      </trkpt>
      <trkpt lat="46.894" lon="-1.12725">
        <ele>85</ele>
        <time>2022-05-28T09:39:34.554Z</time>
      </trkpt>
      <trkpt lat="46.8933" lon="-1.12699">
        <ele>86</ele>
        <time>2022-05-28T09:39:48.736Z</time>
      </trkpt>
      <trkpt lat="46.89242" lon="-1.12678">
        <ele>87</ele>
        <time>2022-05-28T09:40:05.777Z</time>
      </trkpt>
      <trkpt lat="46.89219" lon="-1.12664">
        <ele>87</ele>
        <time>2022-05-28T09:40:10.039Z</time>
      </trkpt>
      <trkpt lat="46.89212" lon="-1.12655">
        <ele>87</ele>
        <time>2022-05-28T09:40:11.633Z</time>
      </trkpt>
      <trkpt lat="46.89202" lon="-1.1263">
        <ele>87</ele>
        <time>2022-05-28T09:40:15.021Z</time>
      </trkpt>
      <trkpt lat="46.89199" lon="-1.12612">
        <ele>87</ele>
        <time>2022-05-28T09:40:17.187Z</time>
      </trkpt>
      <trkpt lat="46.89198" lon="-1.12596">
        <ele>87</ele>
        <time>2022-05-28T09:40:19.066Z</time>
      </trkpt>
      <trkpt lat="46.89202" lon="-1.12539">
        <ele>87</ele>
        <time>2022-05-28T09:40:25.766Z</time>
      </trkpt>
      <trkpt lat="46.89189" lon="-1.12502">
        <ele>86</ele>
        <time>2022-05-28T09:40:29.376Z</time>
      </trkpt>
      <trkpt lat="46.89137" lon="-1.12419">
        <ele>86</ele>
        <time>2022-05-28T09:40:42.543Z</time>
      </trkpt>
      <trkpt lat="46.89112" lon="-1.12397">
        <ele>86</ele>
        <time>2022-05-28T09:40:47.535Z</time>
      </trkpt>
      <trkpt lat="46.89082" lon="-1.12376">
        <ele>85</ele>
        <time>2022-05-28T09:40:51.925Z</time>
      </trkpt>
      <trkpt lat="46.89067" lon="-1.12355">
        <ele>86</ele>
        <time>2022-05-28T09:40:57.980Z</time>
      </trkpt>
      <trkpt lat="46.89034" lon="-1.12281">
        <ele>87</ele>
        <time>2022-05-28T09:41:10.180Z</time>
      </trkpt>
      <trkpt lat="46.88777" lon="-1.11823">
        <ele>94</ele>
        <time>2022-05-28T09:42:32.634Z</time>
      </trkpt>
      <trkpt lat="46.88714" lon="-1.11675">
        <ele>95</ele>
        <time>2022-05-28T09:42:54.766Z</time>
      </trkpt>
      <trkpt lat="46.88643" lon="-1.11553">
        <ele>94</ele>
        <time>2022-05-28T09:43:11.990Z</time>
      </trkpt>
      <trkpt lat="46.88625" lon="-1.11526">
        <ele>93</ele>
        <time>2022-05-28T09:43:15.177Z</time>
      </trkpt>
      <trkpt lat="46.88554" lon="-1.11454">
        <ele>91</ele>
        <time>2022-05-28T09:43:27.229Z</time>
      </trkpt>
      <trkpt lat="46.88477" lon="-1.1136">
        <ele>88</ele>
        <time>2022-05-28T09:43:40.486Z</time>
      </trkpt>
      <trkpt lat="46.88421" lon="-1.11311">
        <ele>84</ele>
        <time>2022-05-28T09:43:47.410Z</time>
      </trkpt>
      <trkpt lat="46.88412" lon="-1.11282">
        <ele>83</ele>
        <time>2022-05-28T09:43:49.967Z</time>
      </trkpt>
      <trkpt lat="46.88404" lon="-1.11215">
        <ele>82</ele>
        <time>2022-05-28T09:43:56.541Z</time>
      </trkpt>
      <trkpt lat="46.88405" lon="-1.11202">
        <ele>83</ele>
        <time>2022-05-28T09:44:02.402Z</time>
      </trkpt>
      <trkpt lat="46.88408" lon="-1.11192">
        <ele>83</ele>
        <time>2022-05-28T09:44:03.679Z</time>
      </trkpt>
      <trkpt lat="46.88445" lon="-1.11127">
        <ele>86</ele>
        <time>2022-05-28T09:44:21.358Z</time>
      </trkpt>
      <trkpt lat="46.88447" lon="-1.1112">
        <ele>86</ele>
        <time>2022-05-28T09:44:22.246Z</time>
      </trkpt>
      <trkpt lat="46.88389" lon="-1.11125">
        <ele>83</ele>
        <time>2022-05-28T09:44:28.810Z</time>
      </trkpt>
      <trkpt lat="46.88298" lon="-1.11153">
        <ele>75</ele>
        <time>2022-05-28T09:44:38.357Z</time>
      </trkpt>
      <trkpt lat="46.88265" lon="-1.11169">
        <ele>74</ele>
        <time>2022-05-28T09:44:42.994Z</time>
      </trkpt>
      <trkpt lat="46.88207" lon="-1.11227">
        <ele>74</ele>
        <time>2022-05-28T09:44:55.015Z</time>
      </trkpt>
      <trkpt lat="46.88192" lon="-1.11237">
        <ele>75</ele>
        <time>2022-05-28T09:45:00.668Z</time>
      </trkpt>
      <trkpt lat="46.88111" lon="-1.11275">
        <ele>79</ele>
        <time>2022-05-28T09:45:25.121Z</time>
      </trkpt>
      <trkpt lat="46.88058" lon="-1.1131">
        <ele>82</ele>
        <time>2022-05-28T09:45:42.834Z</time>
      </trkpt>
      <trkpt lat="46.88011" lon="-1.11346">
        <ele>84</ele>
        <time>2022-05-28T09:45:56.436Z</time>
      </trkpt>
      <trkpt lat="46.87992" lon="-1.1137">
        <ele>85</ele>
        <time>2022-05-28T09:46:03.040Z</time>
      </trkpt>
      <trkpt lat="46.87971" lon="-1.1141">
        <ele>87</ele>
        <time>2022-05-28T09:46:14.456Z</time>
      </trkpt>
      <trkpt lat="46.87954" lon="-1.11425">
        <ele>88</ele>
        <time>2022-05-28T09:46:20.410Z</time>
      </trkpt>
      <trkpt lat="46.87846" lon="-1.11469">
        <ele>92</ele>
        <time>2022-05-28T09:46:48.471Z</time>
      </trkpt>
      <trkpt lat="46.87749" lon="-1.11545">
        <ele>97</ele>
        <time>2022-05-28T09:47:19.482Z</time>
      </trkpt>
      <trkpt lat="46.87667" lon="-1.11585">
        <ele>98</ele>
        <time>2022-05-28T09:47:36.062Z</time>
      </trkpt>
      <trkpt lat="46.87606" lon="-1.11618">
        <ele>96</ele>
        <time>2022-05-28T09:47:44.604Z</time>
      </trkpt>
      <trkpt lat="46.87589" lon="-1.11625">
        <ele>95</ele>
        <time>2022-05-28T09:47:46.535Z</time>
      </trkpt>
      <trkpt lat="46.87572" lon="-1.11627">
        <ele>95</ele>
        <time>2022-05-28T09:47:49.453Z</time>
      </trkpt>
      <trkpt lat="46.87555" lon="-1.11624">
        <ele>94</ele>
        <time>2022-05-28T09:47:51.304Z</time>
      </trkpt>
      <trkpt lat="46.87547" lon="-1.11619">
        <ele>94</ele>
        <time>2022-05-28T09:47:52.792Z</time>
      </trkpt>
      <trkpt lat="46.87504" lon="-1.11583">
        <ele>92</ele>
        <time>2022-05-28T09:47:58.847Z</time>
      </trkpt>
      <trkpt lat="46.87452" lon="-1.11531">
        <ele>93</ele>
        <time>2022-05-28T09:48:11.481Z</time>
      </trkpt>
      <trkpt lat="46.87256" lon="-1.11404">
        <ele>90</ele>
        <time>2022-05-28T09:48:43.783Z</time>
      </trkpt>
      <trkpt lat="46.87145" lon="-1.11317">
        <ele>91</ele>
        <time>2022-05-28T09:49:07.066Z</time>
      </trkpt>
      <trkpt lat="46.87044" lon="-1.11254">
        <ele>91</ele>
        <time>2022-05-28T09:49:25.854Z</time>
      </trkpt>
      <trkpt lat="46.86988" lon="-1.11226">
        <ele>90</ele>
        <time>2022-05-28T09:49:34.552Z</time>
      </trkpt>
      <trkpt lat="46.8694" lon="-1.11196">
        <ele>89</ele>
        <time>2022-05-28T09:49:42.079Z</time>
      </trkpt>
      <trkpt lat="46.86893" lon="-1.11189">
        <ele>89</ele>
        <time>2022-05-28T09:49:50.162Z</time>
      </trkpt>
      <trkpt lat="46.86872" lon="-1.11189">
        <ele>90</ele>
        <time>2022-05-28T09:49:56.244Z</time>
      </trkpt>
      <trkpt lat="46.86847" lon="-1.11193">
        <ele>90</ele>
        <time>2022-05-28T09:50:00.548Z</time>
      </trkpt>
      <trkpt lat="46.86769" lon="-1.11221">
        <ele>91</ele>
        <time>2022-05-28T09:50:16.093Z</time>
      </trkpt>
      <trkpt lat="46.86753" lon="-1.11219">
        <ele>92</ele>
        <time>2022-05-28T09:50:21.720Z</time>
      </trkpt>
      <trkpt lat="46.8659" lon="-1.11172">
        <ele>93</ele>
        <time>2022-05-28T09:50:51.856Z</time>
      </trkpt>
      <trkpt lat="46.86536" lon="-1.11152">
        <ele>95</ele>
        <time>2022-05-28T09:51:05.836Z</time>
      </trkpt>
      <trkpt lat="46.86508" lon="-1.11135">
        <ele>96</ele>
        <time>2022-05-28T09:51:13.187Z</time>
      </trkpt>
      <trkpt lat="46.86456" lon="-1.11084">
        <ele>97</ele>
        <time>2022-05-28T09:51:25.759Z</time>
      </trkpt>
      <trkpt lat="46.8643" lon="-1.11065">
        <ele>97</ele>
        <time>2022-05-28T09:51:30.732Z</time>
      </trkpt>
      <trkpt lat="46.86377" lon="-1.10736">
        <ele>94</ele>
        <time>2022-05-28T09:52:05.864Z</time>
      </trkpt>
      <trkpt lat="46.86366" lon="-1.10682">
        <ele>93</ele>
        <time>2022-05-28T09:52:11.118Z</time>
      </trkpt>
      <trkpt lat="46.86335" lon="-1.10583">
        <ele>94</ele>
        <time>2022-05-28T09:52:25.675Z</time>
      </trkpt>
      <trkpt lat="46.86164" lon="-1.10111">
        <ele>87</ele>
        <time>2022-05-28T09:53:18.337Z</time>
      </trkpt>
      <trkpt lat="46.86138" lon="-1.1006">
        <ele>86</ele>
        <time>2022-05-28T09:53:24.413Z</time>
      </trkpt>
      <trkpt lat="46.86096" lon="-1.10014">
        <ele>88</ele>
        <time>2022-05-28T09:53:37.934Z</time>
      </trkpt>
      <trkpt lat="46.86079" lon="-1.09992">
        <ele>88</ele>
        <time>2022-05-28T09:53:41.818Z</time>
      </trkpt>
      <trkpt lat="46.86007" lon="-1.09848">
        <ele>89</ele>
        <time>2022-05-28T09:54:04.430Z</time>
      </trkpt>
      <trkpt lat="46.85984" lon="-1.09848">
        <ele>90</ele>
        <time>2022-05-28T09:54:10.756Z</time>
      </trkpt>
      <trkpt lat="46.85973" lon="-1.09852">
        <ele>90</ele>
        <time>2022-05-28T09:54:12.695Z</time>
      </trkpt>
      <trkpt lat="46.85969" lon="-1.09796">
        <ele>90</ele>
        <time>2022-05-28T09:54:19.283Z</time>
      </trkpt>
      <trkpt lat="46.8597" lon="-1.09781">
        <ele>90</ele>
        <time>2022-05-28T09:54:21.046Z</time>
      </trkpt>
      <trkpt lat="46.85979" lon="-1.09755">
        <ele>89</ele>
        <time>2022-05-28T09:54:23.320Z</time>
      </trkpt>
      <trkpt lat="46.85943" lon="-1.09662">
        <ele>92</ele>
        <time>2022-05-28T09:54:42.830Z</time>
      </trkpt>
      <trkpt lat="46.85968" lon="-1.09632">
        <ele>90</ele>
        <time>2022-05-28T09:54:46.251Z</time>
      </trkpt>
      <trkpt lat="46.85979" lon="-1.09615">
        <ele>89</ele>
        <time>2022-05-28T09:54:47.937Z</time>
      </trkpt>
      <trkpt lat="46.85985" lon="-1.09599">
        <ele>89</ele>
        <time>2022-05-28T09:54:50.072Z</time>
      </trkpt>
      <trkpt lat="46.85984" lon="-1.0957">
        <ele>89</ele>
        <time>2022-05-28T09:54:53.469Z</time>
      </trkpt>
      <trkpt lat="46.85978" lon="-1.09531">
        <ele>88</ele>
        <time>2022-05-28T09:54:56.904Z</time>
      </trkpt>
      <trkpt lat="46.8595" lon="-1.09397">
        <ele>89</ele>
        <time>2022-05-28T09:55:15.070Z</time>
      </trkpt>
      <trkpt lat="46.8594" lon="-1.09364">
        <ele>88</ele>
        <time>2022-05-28T09:55:18.083Z</time>
      </trkpt>
      <trkpt lat="46.8588" lon="-1.09227">
        <ele>83</ele>
        <time>2022-05-28T09:55:31.242Z</time>
      </trkpt>
      <trkpt lat="46.8587" lon="-1.09191">
        <ele>81</ele>
        <time>2022-05-28T09:55:33.970Z</time>
      </trkpt>
      <trkpt lat="46.85854" lon="-1.09061">
        <ele>79</ele>
        <time>2022-05-28T09:55:46.675Z</time>
      </trkpt>
      <trkpt lat="46.85851" lon="-1.09003">
        <ele>78</ele>
        <time>2022-05-28T09:55:52.136Z</time>
      </trkpt>
      <trkpt lat="46.85833" lon="-1.08935">
        <ele>79</ele>
        <time>2022-05-28T09:56:02.593Z</time>
      </trkpt>
      <trkpt lat="46.85791" lon="-1.08876">
        <ele>80</ele>
        <time>2022-05-28T09:56:14.435Z</time>
      </trkpt>
      <trkpt lat="46.85734" lon="-1.08779">
        <ele>82</ele>
        <time>2022-05-28T09:56:33.348Z</time>
      </trkpt>
      <trkpt lat="46.85726" lon="-1.08735">
        <ele>83</ele>
        <time>2022-05-28T09:56:40.822Z</time>
      </trkpt>
      <trkpt lat="46.85755" lon="-1.08708">
        <ele>85</ele>
        <time>2022-05-28T09:56:52.231Z</time>
      </trkpt>
      <trkpt lat="46.85845" lon="-1.08528">
        <ele>89</ele>
        <time>2022-05-28T09:57:26.459Z</time>
      </trkpt>
      <trkpt lat="46.8582" lon="-1.08484">
        <ele>89</ele>
        <time>2022-05-28T09:57:33.153Z</time>
      </trkpt>
      <trkpt lat="46.8581" lon="-1.08452">
        <ele>89</ele>
        <time>2022-05-28T09:57:37.269Z</time>
      </trkpt>
      <trkpt lat="46.85747" lon="-1.08194">
        <ele>93</ele>
        <time>2022-05-28T09:58:17.114Z</time>
      </trkpt>
      <trkpt lat="46.8573" lon="-1.08002">
        <ele>95</ele>
        <time>2022-05-28T09:58:43.456Z</time>
      </trkpt>
      <trkpt lat="46.85725" lon="-1.07917">
        <ele>95</ele>
        <time>2022-05-28T09:58:53.438Z</time>
      </trkpt>
      <trkpt lat="46.85729" lon="-1.07755">
        <ele>94</ele>
        <time>2022-05-28T09:59:10.890Z</time>
      </trkpt>
      <trkpt lat="46.85729" lon="-1.0765">
        <ele>95</ele>
        <time>2022-05-28T09:59:25.002Z</time>
      </trkpt>
      <trkpt lat="46.85722" lon="-1.07539">
        <ele>95</ele>
        <time>2022-05-28T09:59:38.045Z</time>
      </trkpt>
      <trkpt lat="46.85674" lon="-1.07306">
        <ele>97</ele>
        <time>2022-05-28T10:00:10.111Z</time>
      </trkpt>
      <trkpt lat="46.85671" lon="-1.07281">
        <ele>97</ele>
        <time>2022-05-28T10:00:13.081Z</time>
      </trkpt>
      <trkpt lat="46.85674" lon="-1.07212">
        <ele>98</ele>
        <time>2022-05-28T10:00:23.115Z</time>
      </trkpt>
      <trkpt lat="46.85683" lon="-1.07143">
        <ele>98</ele>
        <time>2022-05-28T10:00:31.334Z</time>
      </trkpt>
      <trkpt lat="46.85725" lon="-1.06929">
        <ele>99</ele>
        <time>2022-05-28T10:00:59.101Z</time>
      </trkpt>
      <trkpt lat="46.85749" lon="-1.06754">
        <ele>100</ele>
        <time>2022-05-28T10:01:21.724Z</time>
      </trkpt>
      <trkpt lat="46.8577" lon="-1.06654">
        <ele>101</ele>
        <time>2022-05-28T10:01:35.791Z</time>
      </trkpt>
      <trkpt lat="46.85811" lon="-1.06507">
        <ele>99</ele>
        <time>2022-05-28T10:01:51.541Z</time>
      </trkpt>
      <trkpt lat="46.85817" lon="-1.06221">
        <ele>97</ele>
        <time>2022-05-28T10:02:22.017Z</time>
      </trkpt>
      <trkpt lat="46.85839" lon="-1.06045">
        <ele>95</ele>
        <time>2022-05-28T10:02:40.082Z</time>
      </trkpt>
      <trkpt lat="46.85839" lon="-1.05995">
        <ele>94</ele>
        <time>2022-05-28T10:02:44.626Z</time>
      </trkpt>
      <trkpt lat="46.85762" lon="-1.0571">
        <ele>93</ele>
        <time>2022-05-28T10:03:18.914Z</time>
      </trkpt>
      <trkpt lat="46.85711" lon="-1.05474">
        <ele>96</ele>
        <time>2022-05-28T10:03:53.534Z</time>
      </trkpt>
      <trkpt lat="46.85701" lon="-1.05411">
        <ele>98</ele>
        <time>2022-05-28T10:04:05.964Z</time>
      </trkpt>
      <trkpt lat="46.857" lon="-1.05369">
        <ele>99</ele>
        <time>2022-05-28T10:04:13.082Z</time>
      </trkpt>
      <trkpt lat="46.85728" lon="-1.05245">
        <ele>99</ele>
        <time>2022-05-28T10:04:28.362Z</time>
      </trkpt>
      <trkpt lat="46.85736" lon="-1.05194">
        <ele>99</ele>
        <time>2022-05-28T10:04:34.484Z</time>
      </trkpt>
      <trkpt lat="46.8574" lon="-1.05148">
        <ele>99</ele>
        <time>2022-05-28T10:04:39.910Z</time>
      </trkpt>
      <trkpt lat="46.85745" lon="-1.05002">
        <ele>99</ele>
        <time>2022-05-28T10:04:57.014Z</time>
      </trkpt>
      <trkpt lat="46.85742" lon="-1.04951">
        <ele>100</ele>
        <time>2022-05-28T10:05:05.082Z</time>
      </trkpt>
      <trkpt lat="46.85738" lon="-1.0495">
        <ele>100</ele>
        <time>2022-05-28T10:05:05.776Z</time>
      </trkpt>
      <trkpt lat="46.85734" lon="-1.0494">
        <ele>101</ele>
        <time>2022-05-28T10:05:11.494Z</time>
      </trkpt>
      <trkpt lat="46.85738" lon="-1.0493">
        <ele>101</ele>
        <time>2022-05-28T10:05:12.849Z</time>
      </trkpt>
      <trkpt lat="46.85742" lon="-1.04929">
        <ele>101</ele>
        <time>2022-05-28T10:05:13.544Z</time>
      </trkpt>
      <trkpt lat="46.85722" lon="-1.04803">
        <ele>102</ele>
        <time>2022-05-28T10:05:30.464Z</time>
      </trkpt>
      <trkpt lat="46.85736" lon="-1.04688">
        <ele>103</ele>
        <time>2022-05-28T10:05:45.936Z</time>
      </trkpt>
      <trkpt lat="46.85716" lon="-1.04671">
        <ele>103</ele>
        <time>2022-05-28T10:05:49.894Z</time>
      </trkpt>
      <trkpt lat="46.85736" lon="-1.04688">
        <ele>103</ele>
        <time>2022-05-28T10:05:53.852Z</time>
      </trkpt>
      <trkpt lat="46.85741" lon="-1.04586">
        <ele>104</ele>
        <time>2022-05-28T10:06:07.649Z</time>
      </trkpt>
      <trkpt lat="46.85737" lon="-1.04521">
        <ele>105</ele>
        <time>2022-05-28T10:06:17.251Z</time>
      </trkpt>
      <trkpt lat="46.85731" lon="-1.04498">
        <ele>105</ele>
        <time>2022-05-28T10:06:20.132Z</time>
      </trkpt>
      <trkpt lat="46.85715" lon="-1.04471">
        <ele>104</ele>
        <time>2022-05-28T10:06:23.105Z</time>
      </trkpt>
      <trkpt lat="46.85707" lon="-1.04483">
        <ele>104</ele>
        <time>2022-05-28T10:06:25.066Z</time>
      </trkpt>
      <trkpt lat="46.85695" lon="-1.04484">
        <ele>103</ele>
        <time>2022-05-28T10:06:26.300Z</time>
      </trkpt>
      <trkpt lat="46.85688" lon="-1.04477">
        <ele>103</ele>
        <time>2022-05-28T10:06:27.751Z</time>
      </trkpt>
      <trkpt lat="46.85685" lon="-1.0447">
        <ele>103</ele>
        <time>2022-05-28T10:06:28.718Z</time>
      </trkpt>
      <trkpt lat="46.85684" lon="-1.04452">
        <ele>103</ele>
        <time>2022-05-28T10:06:30.831Z</time>
      </trkpt>
      <trkpt lat="46.85543" lon="-1.04323">
        <ele>99</ele>
        <time>2022-05-28T10:06:53.866Z</time>
      </trkpt>
      <trkpt lat="46.85447" lon="-1.0424">
        <ele>99</ele>
        <time>2022-05-28T10:07:12.949Z</time>
      </trkpt>
      <trkpt lat="46.85432" lon="-1.04223">
        <ele>99</ele>
        <time>2022-05-28T10:07:16.196Z</time>
      </trkpt>
      <trkpt lat="46.85424" lon="-1.04229">
        <ele>99</ele>
        <time>2022-05-28T10:07:17.735Z</time>
      </trkpt>
      <trkpt lat="46.85416" lon="-1.04223">
        <ele>99</ele>
        <time>2022-05-28T10:07:19.273Z</time>
      </trkpt>
      <trkpt lat="46.85415" lon="-1.04216">
        <ele>99</ele>
        <time>2022-05-28T10:07:20.110Z</time>
      </trkpt>
      <trkpt lat="46.85416" lon="-1.04209">
        <ele>99</ele>
        <time>2022-05-28T10:07:20.946Z</time>
      </trkpt>
      <trkpt lat="46.85424" lon="-1.04203">
        <ele>100</ele>
        <time>2022-05-28T10:07:26.806Z</time>
      </trkpt>
      <trkpt lat="46.85444" lon="-1.04156">
        <ele>100</ele>
        <time>2022-05-28T10:07:33.284Z</time>
      </trkpt>
      <trkpt lat="46.85589" lon="-1.03804">
        <ele>103</ele>
        <time>2022-05-28T10:08:26.696Z</time>
      </trkpt>
      <trkpt lat="46.85582" lon="-1.03749">
        <ele>103</ele>
        <time>2022-05-28T10:08:33.242Z</time>
      </trkpt>
      <trkpt lat="46.85551" lon="-1.03656">
        <ele>100</ele>
        <time>2022-05-28T10:08:41.762Z</time>
      </trkpt>
      <trkpt lat="46.8569" lon="-1.03617">
        <ele>103</ele>
        <time>2022-05-28T10:09:11.815Z</time>
      </trkpt>
      <trkpt lat="46.85754" lon="-1.03615">
        <ele>104</ele>
        <time>2022-05-28T10:09:24.621Z</time>
      </trkpt>
      <trkpt lat="46.85854" lon="-1.03677">
        <ele>105</ele>
        <time>2022-05-28T10:09:44.961Z</time>
      </trkpt>
      <trkpt lat="46.85861" lon="-1.03644">
        <ele>106</ele>
        <time>2022-05-28T10:09:51.368Z</time>
      </trkpt>
      <trkpt lat="46.85872" lon="-1.03538">
        <ele>106</ele>
        <time>2022-05-28T10:10:03.912Z</time>
      </trkpt>
      <trkpt lat="46.85885" lon="-1.03529">
        <ele>106</ele>
        <time>2022-05-28T10:10:06.373Z</time>
      </trkpt>
      <trkpt lat="46.85908" lon="-1.0349">
        <ele>107</ele>
        <time>2022-05-28T10:10:14.474Z</time>
      </trkpt>
      <trkpt lat="46.85899" lon="-1.03481">
        <ele>107</ele>
        <time>2022-05-28T10:10:16.339Z</time>
      </trkpt>
      <trkpt lat="46.85898" lon="-1.03476">
        <ele>107</ele>
        <time>2022-05-28T10:10:16.949Z</time>
      </trkpt>
      <trkpt lat="46.85899" lon="-1.03481">
        <ele>107</ele>
        <time>2022-05-28T10:10:17.558Z</time>
      </trkpt>
      <trkpt lat="46.85908" lon="-1.0349">
        <ele>107</ele>
        <time>2022-05-28T10:10:19.424Z</time>
      </trkpt>
      <trkpt lat="46.85969" lon="-1.0339">
        <ele>109</ele>
        <time>2022-05-28T10:10:39.015Z</time>
      </trkpt>
      <trkpt lat="46.85899" lon="-1.03156">
        <ele>106</ele>
        <time>2022-05-28T10:11:04.622Z</time>
      </trkpt>
      <trkpt lat="46.85887" lon="-1.03051">
        <ele>108</ele>
        <time>2022-05-28T10:11:21.193Z</time>
      </trkpt>
      <trkpt lat="46.85862" lon="-1.02941">
        <ele>108</ele>
        <time>2022-05-28T10:11:34.756Z</time>
      </trkpt>
      <trkpt lat="46.85848" lon="-1.02824">
        <ele>107</ele>
        <time>2022-05-28T10:11:47.175Z</time>
      </trkpt>
      <trkpt lat="46.85836" lon="-1.02745">
        <ele>107</ele>
        <time>2022-05-28T10:11:56.644Z</time>
      </trkpt>
      <trkpt lat="46.85784" lon="-1.02669">
        <ele>109</ele>
        <time>2022-05-28T10:12:13.328Z</time>
      </trkpt>
      <trkpt lat="46.85785" lon="-1.02664">
        <ele>109</ele>
        <time>2022-05-28T10:12:13.938Z</time>
      </trkpt>
      <trkpt lat="46.85789" lon="-1.02661">
        <ele>109</ele>
        <time>2022-05-28T10:12:14.707Z</time>
      </trkpt>
      <trkpt lat="46.85791" lon="-1.02662">
        <ele>109</ele>
        <time>2022-05-28T10:12:15.069Z</time>
      </trkpt>
      <trkpt lat="46.85932" lon="-1.02505">
        <ele>110</ele>
        <time>2022-05-28T10:12:47.095Z</time>
      </trkpt>
      <trkpt lat="46.85946" lon="-1.02482">
        <ele>111</ele>
        <time>2022-05-28T10:12:53.184Z</time>
      </trkpt>
      <trkpt lat="46.85939" lon="-1.02477">
        <ele>111</ele>
        <time>2022-05-28T10:12:54.517Z</time>
      </trkpt>
      <trkpt lat="46.85937" lon="-1.02467">
        <ele>111</ele>
        <time>2022-05-28T10:12:55.736Z</time>
      </trkpt>
      <trkpt lat="46.85939" lon="-1.02457">
        <ele>111</ele>
        <time>2022-05-28T10:12:56.955Z</time>
      </trkpt>
      <trkpt lat="46.85944" lon="-1.02452">
        <ele>111</ele>
        <time>2022-05-28T10:12:57.992Z</time>
      </trkpt>
      <trkpt lat="46.85915" lon="-1.02411">
        <ele>111</ele>
        <time>2022-05-28T10:13:04.893Z</time>
      </trkpt>
      <trkpt lat="46.85869" lon="-1.02325">
        <ele>111</ele>
        <time>2022-05-28T10:13:17.669Z</time>
      </trkpt>
      <trkpt lat="46.85846" lon="-1.02277">
        <ele>110</ele>
        <time>2022-05-28T10:13:23.179Z</time>
      </trkpt>
      <trkpt lat="46.85841" lon="-1.0228">
        <ele>110</ele>
        <time>2022-05-28T10:13:24.104Z</time>
      </trkpt>
      <trkpt lat="46.85837" lon="-1.02279">
        <ele>110</ele>
        <time>2022-05-28T10:13:24.798Z</time>
      </trkpt>
      <trkpt lat="46.85834" lon="-1.02267">
        <ele>109</ele>
        <time>2022-05-28T10:13:25.695Z</time>
      </trkpt>
      <trkpt lat="46.85839" lon="-1.0226">
        <ele>109</ele>
        <time>2022-05-28T10:13:26.880Z</time>
      </trkpt>
      <trkpt lat="46.85846" lon="-1.02263">
        <ele>110</ele>
        <time>2022-05-28T10:13:32.229Z</time>
      </trkpt>
      <trkpt lat="46.85894" lon="-1.02165">
        <ele>109</ele>
        <time>2022-05-28T10:13:44.853Z</time>
      </trkpt>
      <trkpt lat="46.85905" lon="-1.02134">
        <ele>109</ele>
        <time>2022-05-28T10:13:48.939Z</time>
      </trkpt>
      <trkpt lat="46.85904" lon="-1.02099">
        <ele>108</ele>
        <time>2022-05-28T10:13:51.838Z</time>
      </trkpt>
      <trkpt lat="46.85943" lon="-1.02018">
        <ele>110</ele>
        <time>2022-05-28T10:14:07.621Z</time>
      </trkpt>
      <trkpt lat="46.8594" lon="-1.0201">
        <ele>110</ele>
        <time>2022-05-28T10:14:08.689Z</time>
      </trkpt>
      <trkpt lat="46.85943" lon="-1.02002">
        <ele>110</ele>
        <time>2022-05-28T10:14:09.756Z</time>
      </trkpt>
      <trkpt lat="46.85949" lon="-1.02002">
        <ele>111</ele>
        <time>2022-05-28T10:14:14.156Z</time>
      </trkpt>
      <trkpt lat="46.85951" lon="-1.02006">
        <ele>111</ele>
        <time>2022-05-28T10:14:14.736Z</time>
      </trkpt>
      <trkpt lat="46.86003" lon="-1.01975">
        <ele>113</ele>
        <time>2022-05-28T10:14:28.781Z</time>
      </trkpt>
      <trkpt lat="46.86044" lon="-1.01947">
        <ele>113</ele>
        <time>2022-05-28T10:14:36.524Z</time>
      </trkpt>
      <trkpt lat="46.86066" lon="-1.01928">
        <ele>113</ele>
        <time>2022-05-28T10:14:40.895Z</time>
      </trkpt>
      <trkpt lat="46.86065" lon="-1.01919">
        <ele>113</ele>
        <time>2022-05-28T10:14:41.962Z</time>
      </trkpt>
      <trkpt lat="46.86067" lon="-1.01911">
        <ele>113</ele>
        <time>2022-05-28T10:14:42.959Z</time>
      </trkpt>
      <trkpt lat="46.86071" lon="-1.01906">
        <ele>113</ele>
        <time>2022-05-28T10:14:43.859Z</time>
      </trkpt>
      <trkpt lat="46.86076" lon="-1.01904">
        <ele>113</ele>
        <time>2022-05-28T10:14:44.746Z</time>
      </trkpt>
      <trkpt lat="46.86082" lon="-1.01907">
        <ele>113</ele>
        <time>2022-05-28T10:14:45.831Z</time>
      </trkpt>
      <trkpt lat="46.86085" lon="-1.01912">
        <ele>113</ele>
        <time>2022-05-28T10:14:46.609Z</time>
      </trkpt>
      <trkpt lat="46.8612" lon="-1.0186">
        <ele>112</ele>
        <time>2022-05-28T10:14:53.751Z</time>
      </trkpt>
      <trkpt lat="46.8613" lon="-1.0183">
        <ele>112</ele>
        <time>2022-05-28T10:14:57.655Z</time>
      </trkpt>
      <trkpt lat="46.86138" lon="-1.01698">
        <ele>112</ele>
        <time>2022-05-28T10:15:13.160Z</time>
      </trkpt>
      <trkpt lat="46.86031" lon="-1.01522">
        <ele>110</ele>
        <time>2022-05-28T10:15:37.760Z</time>
      </trkpt>
      <trkpt lat="46.86014" lon="-1.0148">
        <ele>110</ele>
        <time>2022-05-28T10:15:43.470Z</time>
      </trkpt>
      <trkpt lat="46.85983" lon="-1.01368">
        <ele>111</ele>
        <time>2022-05-28T10:15:59.405Z</time>
      </trkpt>
      <trkpt lat="46.86072" lon="-1.01291">
        <ele>113</ele>
        <time>2022-05-28T10:16:20.926Z</time>
      </trkpt>
      <trkpt lat="46.86139" lon="-1.01207">
        <ele>115</ele>
        <time>2022-05-28T10:16:39.967Z</time>
      </trkpt>
      <trkpt lat="46.86181" lon="-1.01146">
        <ele>115</ele>
        <time>2022-05-28T10:16:50.095Z</time>
      </trkpt>
      <trkpt lat="46.86181" lon="-1.01138">
        <ele>116</ele>
        <time>2022-05-28T10:16:54.106Z</time>
      </trkpt>
      <trkpt lat="46.86156" lon="-1.01112">
        <ele>116</ele>
        <time>2022-05-28T10:16:59.355Z</time>
      </trkpt>
      <trkpt lat="46.86253" lon="-1.00843">
        <ele>119</ele>
        <time>2022-05-28T10:17:40.437Z</time>
      </trkpt>
      <trkpt lat="46.86256" lon="-1.00808">
        <ele>119</ele>
        <time>2022-05-28T10:17:44.564Z</time>
      </trkpt>
      <trkpt lat="46.86252" lon="-1.00758">
        <ele>119</ele>
        <time>2022-05-28T10:17:50.453Z</time>
      </trkpt>
      <trkpt lat="46.86231" lon="-1.00673">
        <ele>117</ele>
        <time>2022-05-28T10:17:58.469Z</time>
      </trkpt>
      <trkpt lat="46.86276" lon="-1.00656">
        <ele>118</ele>
        <time>2022-05-28T10:18:08.372Z</time>
      </trkpt>
      <trkpt lat="46.86292" lon="-1.00643">
        <ele>118</ele>
        <time>2022-05-28T10:18:11.504Z</time>
      </trkpt>
    </trkseg>
  </trk>
</gpx>